<?xml version="1.0" encoding="UTF-8" standalone="no" ?>
<gpx xmlns="http://www.topografix.com/GPX/1/1" xmlns:xsi="http://www.w3.org/2001/XMLSchema-instance" xsi:schemaLocation="http://www.topografix.com/GPX/1/1 http://www.topografix.com/GPX/1/1/gpx.xsd" version="1.1" creator="VisuGPX - https://www.visugpx.com">
  <metadata>
    <name>Etang de la tour 9</name>
  </metadata>
  <trk>
    <name><![CDATA[Etang de la tour 9]]></name>
    <trkseg>
      <trkpt lat="48.65501" lon="1.88511">
        <ele>214.99</ele>
        <time>2022-04-26T10:03:18Z</time>
      </trkpt>
      <trkpt lat="48.65498" lon="1.8851">
        <ele>181.83</ele>
        <time>2022-04-26T10:02:20Z</time>
      </trkpt>
      <trkpt lat="48.65498" lon="1.88509">
        <ele>182.79</ele>
        <time>2022-04-26T10:01:18Z</time>
      </trkpt>
      <trkpt lat="48.655" lon="1.88509">
        <ele>182.79</ele>
        <time>2022-04-26T10:01:13Z</time>
      </trkpt>
      <trkpt lat="48.65498" lon="1.88506">
        <ele>185.19</ele>
        <time>2022-04-26T09:59:49Z</time>
      </trkpt>
      <trkpt lat="48.65499" lon="1.88504">
        <ele>185.19</ele>
        <time>2022-04-26T09:59:17Z</time>
      </trkpt>
      <trkpt lat="48.65487" lon="1.8851">
        <ele>187.11</ele>
        <time>2022-04-26T09:57:18Z</time>
      </trkpt>
      <trkpt lat="48.65487" lon="1.88507">
        <ele>188.08</ele>
        <time>2022-04-26T09:56:03Z</time>
      </trkpt>
      <trkpt lat="48.65488" lon="1.88507">
        <ele>189.04</ele>
        <time>2022-04-26T09:55:38Z</time>
      </trkpt>
      <trkpt lat="48.65488" lon="1.88508">
        <ele>189.04</ele>
        <time>2022-04-26T09:55:32Z</time>
      </trkpt>
      <trkpt lat="48.65485" lon="1.88508">
        <ele>189.04</ele>
        <time>2022-04-26T09:55:29Z</time>
      </trkpt>
      <trkpt lat="48.65488" lon="1.88506">
        <ele>189.04</ele>
        <time>2022-04-26T09:55:17Z</time>
      </trkpt>
      <trkpt lat="48.65493" lon="1.88502">
        <ele>190</ele>
        <time>2022-04-26T09:55:10Z</time>
      </trkpt>
      <trkpt lat="48.65493" lon="1.885">
        <ele>190</ele>
        <time>2022-04-26T09:55:00Z</time>
      </trkpt>
      <trkpt lat="48.65493" lon="1.88503">
        <ele>190</ele>
        <time>2022-04-26T09:54:33Z</time>
      </trkpt>
      <trkpt lat="48.65489" lon="1.88505">
        <ele>190.96</ele>
        <time>2022-04-26T09:54:19Z</time>
      </trkpt>
      <trkpt lat="48.65464" lon="1.88498">
        <ele>190</ele>
        <time>2022-04-26T09:54:02Z</time>
      </trkpt>
      <trkpt lat="48.65462" lon="1.88497">
        <ele>190</ele>
        <time>2022-04-26T09:54:00Z</time>
      </trkpt>
      <trkpt lat="48.65438" lon="1.88483">
        <ele>189.04</ele>
        <time>2022-04-26T09:53:40Z</time>
      </trkpt>
      <trkpt lat="48.65436" lon="1.88482">
        <ele>189.04</ele>
        <time>2022-04-26T09:53:38Z</time>
      </trkpt>
      <trkpt lat="48.6542" lon="1.88483">
        <ele>188.08</ele>
        <time>2022-04-26T09:53:30Z</time>
      </trkpt>
      <trkpt lat="48.65405" lon="1.88482">
        <ele>188.08</ele>
        <time>2022-04-26T09:53:24Z</time>
      </trkpt>
      <trkpt lat="48.65395" lon="1.88486">
        <ele>187.11</ele>
        <time>2022-04-26T09:53:19Z</time>
      </trkpt>
      <trkpt lat="48.65367" lon="1.88496">
        <ele>186.15</ele>
        <time>2022-04-26T09:52:58Z</time>
      </trkpt>
      <trkpt lat="48.65332" lon="1.88499">
        <ele>185.19</ele>
        <time>2022-04-26T09:52:31Z</time>
      </trkpt>
      <trkpt lat="48.65308" lon="1.88502">
        <ele>185.19</ele>
        <time>2022-04-26T09:52:10Z</time>
      </trkpt>
      <trkpt lat="48.65323" lon="1.88532">
        <ele>187.11</ele>
        <time>2022-04-26T09:51:52Z</time>
      </trkpt>
      <trkpt lat="48.65325" lon="1.88535">
        <ele>188.08</ele>
        <time>2022-04-26T09:51:49Z</time>
      </trkpt>
      <trkpt lat="48.65323" lon="1.88565">
        <ele>189.04</ele>
        <time>2022-04-26T09:51:29Z</time>
      </trkpt>
      <trkpt lat="48.65317" lon="1.88602">
        <ele>190</ele>
        <time>2022-04-26T09:51:02Z</time>
      </trkpt>
      <trkpt lat="48.65308" lon="1.88606">
        <ele>190</ele>
        <time>2022-04-26T09:50:55Z</time>
      </trkpt>
      <trkpt lat="48.65299" lon="1.88613">
        <ele>190</ele>
        <time>2022-04-26T09:50:47Z</time>
      </trkpt>
      <trkpt lat="48.65295" lon="1.88615">
        <ele>190</ele>
        <time>2022-04-26T09:50:43Z</time>
      </trkpt>
      <trkpt lat="48.65291" lon="1.88625">
        <ele>190</ele>
        <time>2022-04-26T09:50:26Z</time>
      </trkpt>
      <trkpt lat="48.65287" lon="1.88629">
        <ele>190</ele>
        <time>2022-04-26T09:50:19Z</time>
      </trkpt>
      <trkpt lat="48.65277" lon="1.88648">
        <ele>190</ele>
        <time>2022-04-26T09:49:55Z</time>
      </trkpt>
      <trkpt lat="48.65275" lon="1.88656">
        <ele>190</ele>
        <time>2022-04-26T09:49:48Z</time>
      </trkpt>
      <trkpt lat="48.65262" lon="1.88684">
        <ele>190</ele>
        <time>2022-04-26T09:49:25Z</time>
      </trkpt>
      <trkpt lat="48.65245" lon="1.88721">
        <ele>190</ele>
        <time>2022-04-26T09:49:02Z</time>
      </trkpt>
      <trkpt lat="48.65238" lon="1.88728">
        <ele>190</ele>
        <time>2022-04-26T09:48:50Z</time>
      </trkpt>
      <trkpt lat="48.65235" lon="1.88741">
        <ele>190</ele>
        <time>2022-04-26T09:48:23Z</time>
      </trkpt>
      <trkpt lat="48.65235" lon="1.88741">
        <ele>190</ele>
        <time>2022-04-26T09:48:22Z</time>
      </trkpt>
      <trkpt lat="48.65234" lon="1.88755">
        <ele>190</ele>
        <time>2022-04-26T09:48:03Z</time>
      </trkpt>
      <trkpt lat="48.65214" lon="1.88799">
        <ele>189.04</ele>
        <time>2022-04-26T09:47:41Z</time>
      </trkpt>
      <trkpt lat="48.65184" lon="1.88851">
        <ele>187.11</ele>
        <time>2022-04-26T09:47:12Z</time>
      </trkpt>
      <trkpt lat="48.65169" lon="1.88888">
        <ele>186.15</ele>
        <time>2022-04-26T09:46:51Z</time>
      </trkpt>
      <trkpt lat="48.65161" lon="1.88919">
        <ele>185.19</ele>
        <time>2022-04-26T09:46:33Z</time>
      </trkpt>
      <trkpt lat="48.65145" lon="1.88946">
        <ele>186.15</ele>
        <time>2022-04-26T09:46:19Z</time>
      </trkpt>
      <trkpt lat="48.65136" lon="1.88974">
        <ele>186.15</ele>
        <time>2022-04-26T09:45:58Z</time>
      </trkpt>
      <trkpt lat="48.65116" lon="1.89006">
        <ele>187.11</ele>
        <time>2022-04-26T09:45:39Z</time>
      </trkpt>
      <trkpt lat="48.65105" lon="1.89043">
        <ele>189.04</ele>
        <time>2022-04-26T09:45:14Z</time>
      </trkpt>
      <trkpt lat="48.65079" lon="1.89078">
        <ele>187.11</ele>
        <time>2022-04-26T09:44:54Z</time>
      </trkpt>
      <trkpt lat="48.65066" lon="1.89108">
        <ele>187.11</ele>
        <time>2022-04-26T09:44:34Z</time>
      </trkpt>
      <trkpt lat="48.65065" lon="1.8911">
        <ele>187.11</ele>
        <time>2022-04-26T09:44:30Z</time>
      </trkpt>
      <trkpt lat="48.65051" lon="1.8914">
        <ele>187.11</ele>
        <time>2022-04-26T09:44:11Z</time>
      </trkpt>
      <trkpt lat="48.65026" lon="1.89184">
        <ele>187.11</ele>
        <time>2022-04-26T09:43:47Z</time>
      </trkpt>
      <trkpt lat="48.65012" lon="1.8922">
        <ele>187.11</ele>
        <time>2022-04-26T09:43:25Z</time>
      </trkpt>
      <trkpt lat="48.64992" lon="1.89257">
        <ele>188.08</ele>
        <time>2022-04-26T09:43:05Z</time>
      </trkpt>
      <trkpt lat="48.64976" lon="1.89298">
        <ele>188.08</ele>
        <time>2022-04-26T09:42:43Z</time>
      </trkpt>
      <trkpt lat="48.64959" lon="1.89336">
        <ele>188.08</ele>
        <time>2022-04-26T09:42:20Z</time>
      </trkpt>
      <trkpt lat="48.64941" lon="1.89373">
        <ele>188.08</ele>
        <time>2022-04-26T09:41:57Z</time>
      </trkpt>
      <trkpt lat="48.64921" lon="1.89416">
        <ele>188.08</ele>
        <time>2022-04-26T09:41:30Z</time>
      </trkpt>
      <trkpt lat="48.64892" lon="1.89469">
        <ele>188.08</ele>
        <time>2022-04-26T09:41:00Z</time>
      </trkpt>
      <trkpt lat="48.6488" lon="1.89497">
        <ele>188.08</ele>
        <time>2022-04-26T09:40:39Z</time>
      </trkpt>
      <trkpt lat="48.64861" lon="1.89533">
        <ele>189.04</ele>
        <time>2022-04-26T09:40:20Z</time>
      </trkpt>
      <trkpt lat="48.64844" lon="1.89566">
        <ele>189.04</ele>
        <time>2022-04-26T09:40:00Z</time>
      </trkpt>
      <trkpt lat="48.64831" lon="1.89605">
        <ele>189.04</ele>
        <time>2022-04-26T09:39:38Z</time>
      </trkpt>
      <trkpt lat="48.64807" lon="1.89656">
        <ele>189.04</ele>
        <time>2022-04-26T09:39:15Z</time>
      </trkpt>
      <trkpt lat="48.64795" lon="1.89687">
        <ele>189.04</ele>
        <time>2022-04-26T09:38:57Z</time>
      </trkpt>
      <trkpt lat="48.64782" lon="1.8972">
        <ele>189.04</ele>
        <time>2022-04-26T09:38:36Z</time>
      </trkpt>
      <trkpt lat="48.64773" lon="1.89742">
        <ele>189.04</ele>
        <time>2022-04-26T09:38:16Z</time>
      </trkpt>
      <trkpt lat="48.64763" lon="1.8976">
        <ele>189.04</ele>
        <time>2022-04-26T09:37:58Z</time>
      </trkpt>
      <trkpt lat="48.64753" lon="1.89767">
        <ele>189.04</ele>
        <time>2022-04-26T09:37:39Z</time>
      </trkpt>
      <trkpt lat="48.64739" lon="1.89794">
        <ele>189.04</ele>
        <time>2022-04-26T09:37:18Z</time>
      </trkpt>
      <trkpt lat="48.64725" lon="1.89827">
        <ele>189.04</ele>
        <time>2022-04-26T09:36:58Z</time>
      </trkpt>
      <trkpt lat="48.64703" lon="1.89869">
        <ele>189.04</ele>
        <time>2022-04-26T09:36:36Z</time>
      </trkpt>
      <trkpt lat="48.64693" lon="1.89896">
        <ele>189.04</ele>
        <time>2022-04-26T09:36:21Z</time>
      </trkpt>
      <trkpt lat="48.64674" lon="1.89942">
        <ele>189.04</ele>
        <time>2022-04-26T09:35:56Z</time>
      </trkpt>
      <trkpt lat="48.64654" lon="1.89987">
        <ele>189.04</ele>
        <time>2022-04-26T09:35:33Z</time>
      </trkpt>
      <trkpt lat="48.6464" lon="1.90016">
        <ele>189.04</ele>
        <time>2022-04-26T09:35:16Z</time>
      </trkpt>
      <trkpt lat="48.64629" lon="1.90038">
        <ele>189.04</ele>
        <time>2022-04-26T09:35:04Z</time>
      </trkpt>
      <trkpt lat="48.64613" lon="1.90075">
        <ele>189.04</ele>
        <time>2022-04-26T09:34:45Z</time>
      </trkpt>
      <trkpt lat="48.646" lon="1.90109">
        <ele>189.04</ele>
        <time>2022-04-26T09:34:24Z</time>
      </trkpt>
      <trkpt lat="48.64587" lon="1.90129">
        <ele>190</ele>
        <time>2022-04-26T09:34:08Z</time>
      </trkpt>
      <trkpt lat="48.64565" lon="1.90168">
        <ele>190</ele>
        <time>2022-04-26T09:33:48Z</time>
      </trkpt>
      <trkpt lat="48.64555" lon="1.9019">
        <ele>190</ele>
        <time>2022-04-26T09:33:29Z</time>
      </trkpt>
      <trkpt lat="48.64548" lon="1.90213">
        <ele>190</ele>
        <time>2022-04-26T09:33:13Z</time>
      </trkpt>
      <trkpt lat="48.64543" lon="1.90224">
        <ele>190</ele>
        <time>2022-04-26T09:33:00Z</time>
      </trkpt>
      <trkpt lat="48.64538" lon="1.90229">
        <ele>190</ele>
        <time>2022-04-26T09:32:49Z</time>
      </trkpt>
      <trkpt lat="48.64537" lon="1.90236">
        <ele>190</ele>
        <time>2022-04-26T09:32:14Z</time>
      </trkpt>
      <trkpt lat="48.64542" lon="1.90231">
        <ele>190</ele>
        <time>2022-04-26T09:31:37Z</time>
      </trkpt>
      <trkpt lat="48.64557" lon="1.90236">
        <ele>190</ele>
        <time>2022-04-26T09:31:20Z</time>
      </trkpt>
      <trkpt lat="48.64576" lon="1.90251">
        <ele>190</ele>
        <time>2022-04-26T09:31:06Z</time>
      </trkpt>
      <trkpt lat="48.646" lon="1.90273">
        <ele>190</ele>
        <time>2022-04-26T09:30:48Z</time>
      </trkpt>
      <trkpt lat="48.64605" lon="1.90277">
        <ele>190</ele>
        <time>2022-04-26T09:30:44Z</time>
      </trkpt>
      <trkpt lat="48.64609" lon="1.90281">
        <ele>190</ele>
        <time>2022-04-26T09:30:41Z</time>
      </trkpt>
      <trkpt lat="48.64631" lon="1.9031">
        <ele>189.04</ele>
        <time>2022-04-26T09:30:24Z</time>
      </trkpt>
      <trkpt lat="48.64632" lon="1.90311">
        <ele>189.04</ele>
        <time>2022-04-26T09:30:23Z</time>
      </trkpt>
      <trkpt lat="48.64656" lon="1.90336">
        <ele>189.04</ele>
        <time>2022-04-26T09:30:04Z</time>
      </trkpt>
      <trkpt lat="48.64662" lon="1.90343">
        <ele>189.04</ele>
        <time>2022-04-26T09:29:58Z</time>
      </trkpt>
      <trkpt lat="48.64675" lon="1.90357">
        <ele>189.04</ele>
        <time>2022-04-26T09:29:46Z</time>
      </trkpt>
      <trkpt lat="48.64683" lon="1.90367">
        <ele>189.04</ele>
        <time>2022-04-26T09:29:38Z</time>
      </trkpt>
      <trkpt lat="48.64695" lon="1.90382">
        <ele>189.04</ele>
        <time>2022-04-26T09:29:28Z</time>
      </trkpt>
      <trkpt lat="48.647" lon="1.9039">
        <ele>189.04</ele>
        <time>2022-04-26T09:29:24Z</time>
      </trkpt>
      <trkpt lat="48.64713" lon="1.90397">
        <ele>189.04</ele>
        <time>2022-04-26T09:29:13Z</time>
      </trkpt>
      <trkpt lat="48.64723" lon="1.90405">
        <ele>189.04</ele>
        <time>2022-04-26T09:29:05Z</time>
      </trkpt>
      <trkpt lat="48.64728" lon="1.90408">
        <ele>189.04</ele>
        <time>2022-04-26T09:29:01Z</time>
      </trkpt>
      <trkpt lat="48.64731" lon="1.90413">
        <ele>189.04</ele>
        <time>2022-04-26T09:28:58Z</time>
      </trkpt>
      <trkpt lat="48.64734" lon="1.90421">
        <ele>189.04</ele>
        <time>2022-04-26T09:28:54Z</time>
      </trkpt>
      <trkpt lat="48.6475" lon="1.90439">
        <ele>189.04</ele>
        <time>2022-04-26T09:28:41Z</time>
      </trkpt>
      <trkpt lat="48.6476" lon="1.90455">
        <ele>189.04</ele>
        <time>2022-04-26T09:28:28Z</time>
      </trkpt>
      <trkpt lat="48.64783" lon="1.90477">
        <ele>188.08</ele>
        <time>2022-04-26T09:28:08Z</time>
      </trkpt>
      <trkpt lat="48.64788" lon="1.90481">
        <ele>188.08</ele>
        <time>2022-04-26T09:28:04Z</time>
      </trkpt>
      <trkpt lat="48.64791" lon="1.90488">
        <ele>188.08</ele>
        <time>2022-04-26T09:28:00Z</time>
      </trkpt>
      <trkpt lat="48.64796" lon="1.90495">
        <ele>188.08</ele>
        <time>2022-04-26T09:27:55Z</time>
      </trkpt>
      <trkpt lat="48.64803" lon="1.90499">
        <ele>188.08</ele>
        <time>2022-04-26T09:27:51Z</time>
      </trkpt>
      <trkpt lat="48.64812" lon="1.90508">
        <ele>188.08</ele>
        <time>2022-04-26T09:27:44Z</time>
      </trkpt>
      <trkpt lat="48.64824" lon="1.90521">
        <ele>188.08</ele>
        <time>2022-04-26T09:27:33Z</time>
      </trkpt>
      <trkpt lat="48.64838" lon="1.90537">
        <ele>188.08</ele>
        <time>2022-04-26T09:27:22Z</time>
      </trkpt>
      <trkpt lat="48.64844" lon="1.90544">
        <ele>188.08</ele>
        <time>2022-04-26T09:27:17Z</time>
      </trkpt>
      <trkpt lat="48.64849" lon="1.9055">
        <ele>188.08</ele>
        <time>2022-04-26T09:27:12Z</time>
      </trkpt>
      <trkpt lat="48.64871" lon="1.9057">
        <ele>188.08</ele>
        <time>2022-04-26T09:26:55Z</time>
      </trkpt>
      <trkpt lat="48.64893" lon="1.90596">
        <ele>187.11</ele>
        <time>2022-04-26T09:26:36Z</time>
      </trkpt>
      <trkpt lat="48.64903" lon="1.90608">
        <ele>187.11</ele>
        <time>2022-04-26T09:26:28Z</time>
      </trkpt>
      <trkpt lat="48.64918" lon="1.90629">
        <ele>187.11</ele>
        <time>2022-04-26T09:26:15Z</time>
      </trkpt>
      <trkpt lat="48.64935" lon="1.90654">
        <ele>187.11</ele>
        <time>2022-04-26T09:25:59Z</time>
      </trkpt>
      <trkpt lat="48.64951" lon="1.9067">
        <ele>187.11</ele>
        <time>2022-04-26T09:25:42Z</time>
      </trkpt>
      <trkpt lat="48.64968" lon="1.90686">
        <ele>187.11</ele>
        <time>2022-04-26T09:25:27Z</time>
      </trkpt>
      <trkpt lat="48.64986" lon="1.90708">
        <ele>187.11</ele>
        <time>2022-04-26T09:25:13Z</time>
      </trkpt>
      <trkpt lat="48.64996" lon="1.90718">
        <ele>187.11</ele>
        <time>2022-04-26T09:25:06Z</time>
      </trkpt>
      <trkpt lat="48.65016" lon="1.90741">
        <ele>187.11</ele>
        <time>2022-04-26T09:24:50Z</time>
      </trkpt>
      <trkpt lat="48.65031" lon="1.90752">
        <ele>187.11</ele>
        <time>2022-04-26T09:24:41Z</time>
      </trkpt>
      <trkpt lat="48.65046" lon="1.90778">
        <ele>187.11</ele>
        <time>2022-04-26T09:24:22Z</time>
      </trkpt>
      <trkpt lat="48.65075" lon="1.90802">
        <ele>187.11</ele>
        <time>2022-04-26T09:24:03Z</time>
      </trkpt>
      <trkpt lat="48.65089" lon="1.90825">
        <ele>187.11</ele>
        <time>2022-04-26T09:23:48Z</time>
      </trkpt>
      <trkpt lat="48.65113" lon="1.90842">
        <ele>186.15</ele>
        <time>2022-04-26T09:23:30Z</time>
      </trkpt>
      <trkpt lat="48.65133" lon="1.9086">
        <ele>186.15</ele>
        <time>2022-04-26T09:23:11Z</time>
      </trkpt>
      <trkpt lat="48.65136" lon="1.90868">
        <ele>186.15</ele>
        <time>2022-04-26T09:23:06Z</time>
      </trkpt>
      <trkpt lat="48.65149" lon="1.90882">
        <ele>186.15</ele>
        <time>2022-04-26T09:22:56Z</time>
      </trkpt>
      <trkpt lat="48.65157" lon="1.90895">
        <ele>186.15</ele>
        <time>2022-04-26T09:22:49Z</time>
      </trkpt>
      <trkpt lat="48.65166" lon="1.90901">
        <ele>186.15</ele>
        <time>2022-04-26T09:22:44Z</time>
      </trkpt>
      <trkpt lat="48.65177" lon="1.90915">
        <ele>186.15</ele>
        <time>2022-04-26T09:22:33Z</time>
      </trkpt>
      <trkpt lat="48.65181" lon="1.9092">
        <ele>186.15</ele>
        <time>2022-04-26T09:22:29Z</time>
      </trkpt>
      <trkpt lat="48.65192" lon="1.90934">
        <ele>186.15</ele>
        <time>2022-04-26T09:22:18Z</time>
      </trkpt>
      <trkpt lat="48.65208" lon="1.90956">
        <ele>186.15</ele>
        <time>2022-04-26T09:22:03Z</time>
      </trkpt>
      <trkpt lat="48.65224" lon="1.90977">
        <ele>186.15</ele>
        <time>2022-04-26T09:21:49Z</time>
      </trkpt>
      <trkpt lat="48.6524" lon="1.90991">
        <ele>185.19</ele>
        <time>2022-04-26T09:21:35Z</time>
      </trkpt>
      <trkpt lat="48.65246" lon="1.90996">
        <ele>185.19</ele>
        <time>2022-04-26T09:21:29Z</time>
      </trkpt>
      <trkpt lat="48.65257" lon="1.91006">
        <ele>185.19</ele>
        <time>2022-04-26T09:21:19Z</time>
      </trkpt>
      <trkpt lat="48.65262" lon="1.91013">
        <ele>185.19</ele>
        <time>2022-04-26T09:21:14Z</time>
      </trkpt>
      <trkpt lat="48.6527" lon="1.91032">
        <ele>186.15</ele>
        <time>2022-04-26T09:21:05Z</time>
      </trkpt>
      <trkpt lat="48.65272" lon="1.91038">
        <ele>186.15</ele>
        <time>2022-04-26T09:21:02Z</time>
      </trkpt>
      <trkpt lat="48.65289" lon="1.91066">
        <ele>186.15</ele>
        <time>2022-04-26T09:20:40Z</time>
      </trkpt>
      <trkpt lat="48.65282" lon="1.91075">
        <ele>186.15</ele>
        <time>2022-04-26T09:20:33Z</time>
      </trkpt>
      <trkpt lat="48.65301" lon="1.91069">
        <ele>186.15</ele>
        <time>2022-04-26T09:19:59Z</time>
      </trkpt>
      <trkpt lat="48.65303" lon="1.91076">
        <ele>186.15</ele>
        <time>2022-04-26T09:19:48Z</time>
      </trkpt>
      <trkpt lat="48.65301" lon="1.9107">
        <ele>186.15</ele>
        <time>2022-04-26T09:19:29Z</time>
      </trkpt>
      <trkpt lat="48.65336" lon="1.91102">
        <ele>185.19</ele>
        <time>2022-04-26T09:19:11Z</time>
      </trkpt>
      <trkpt lat="48.65353" lon="1.91111">
        <ele>185.19</ele>
        <time>2022-04-26T09:18:57Z</time>
      </trkpt>
      <trkpt lat="48.65359" lon="1.91116">
        <ele>185.19</ele>
        <time>2022-04-26T09:18:52Z</time>
      </trkpt>
      <trkpt lat="48.65374" lon="1.91133">
        <ele>185.19</ele>
        <time>2022-04-26T09:18:37Z</time>
      </trkpt>
      <trkpt lat="48.65383" lon="1.91142">
        <ele>185.19</ele>
        <time>2022-04-26T09:18:31Z</time>
      </trkpt>
      <trkpt lat="48.65398" lon="1.9116">
        <ele>184.23</ele>
        <time>2022-04-26T09:18:16Z</time>
      </trkpt>
      <trkpt lat="48.65415" lon="1.91186">
        <ele>184.23</ele>
        <time>2022-04-26T09:18:01Z</time>
      </trkpt>
      <trkpt lat="48.65441" lon="1.91208">
        <ele>184.23</ele>
        <time>2022-04-26T09:17:45Z</time>
      </trkpt>
      <trkpt lat="48.65454" lon="1.91223">
        <ele>184.23</ele>
        <time>2022-04-26T09:17:34Z</time>
      </trkpt>
      <trkpt lat="48.65461" lon="1.91236">
        <ele>184.23</ele>
        <time>2022-04-26T09:17:24Z</time>
      </trkpt>
      <trkpt lat="48.65464" lon="1.91253">
        <ele>184.23</ele>
        <time>2022-04-26T09:17:15Z</time>
      </trkpt>
      <trkpt lat="48.65488" lon="1.91271">
        <ele>182.79</ele>
        <time>2022-04-26T09:17:00Z</time>
      </trkpt>
      <trkpt lat="48.65494" lon="1.91277">
        <ele>182.79</ele>
        <time>2022-04-26T09:16:56Z</time>
      </trkpt>
      <trkpt lat="48.65501" lon="1.91281">
        <ele>182.79</ele>
        <time>2022-04-26T09:16:52Z</time>
      </trkpt>
      <trkpt lat="48.65512" lon="1.91288">
        <ele>182.79</ele>
        <time>2022-04-26T09:16:46Z</time>
      </trkpt>
      <trkpt lat="48.65532" lon="1.91311">
        <ele>182.79</ele>
        <time>2022-04-26T09:16:30Z</time>
      </trkpt>
      <trkpt lat="48.65538" lon="1.91314">
        <ele>182.79</ele>
        <time>2022-04-26T09:16:27Z</time>
      </trkpt>
      <trkpt lat="48.65543" lon="1.91321">
        <ele>181.83</ele>
        <time>2022-04-26T09:16:22Z</time>
      </trkpt>
      <trkpt lat="48.65546" lon="1.91326">
        <ele>181.83</ele>
        <time>2022-04-26T09:16:19Z</time>
      </trkpt>
      <trkpt lat="48.65563" lon="1.9135">
        <ele>181.83</ele>
        <time>2022-04-26T09:16:06Z</time>
      </trkpt>
      <trkpt lat="48.65584" lon="1.91367">
        <ele>182.79</ele>
        <time>2022-04-26T09:15:52Z</time>
      </trkpt>
      <trkpt lat="48.65609" lon="1.91385">
        <ele>182.79</ele>
        <time>2022-04-26T09:15:34Z</time>
      </trkpt>
      <trkpt lat="48.65616" lon="1.91398">
        <ele>182.79</ele>
        <time>2022-04-26T09:15:26Z</time>
      </trkpt>
      <trkpt lat="48.65636" lon="1.91425">
        <ele>182.79</ele>
        <time>2022-04-26T09:15:10Z</time>
      </trkpt>
      <trkpt lat="48.65646" lon="1.91432">
        <ele>182.79</ele>
        <time>2022-04-26T09:15:03Z</time>
      </trkpt>
      <trkpt lat="48.65668" lon="1.91453">
        <ele>181.83</ele>
        <time>2022-04-26T09:14:48Z</time>
      </trkpt>
      <trkpt lat="48.65673" lon="1.91458">
        <ele>181.83</ele>
        <time>2022-04-26T09:14:44Z</time>
      </trkpt>
      <trkpt lat="48.65693" lon="1.9148">
        <ele>181.83</ele>
        <time>2022-04-26T09:14:27Z</time>
      </trkpt>
      <trkpt lat="48.65697" lon="1.91487">
        <ele>180.87</ele>
        <time>2022-04-26T09:14:22Z</time>
      </trkpt>
      <trkpt lat="48.65701" lon="1.91493">
        <ele>180.87</ele>
        <time>2022-04-26T09:14:18Z</time>
      </trkpt>
      <trkpt lat="48.65714" lon="1.91519">
        <ele>180.87</ele>
        <time>2022-04-26T09:14:05Z</time>
      </trkpt>
      <trkpt lat="48.6573" lon="1.91538">
        <ele>180.87</ele>
        <time>2022-04-26T09:13:51Z</time>
      </trkpt>
      <trkpt lat="48.65746" lon="1.91555">
        <ele>180.87</ele>
        <time>2022-04-26T09:13:35Z</time>
      </trkpt>
      <trkpt lat="48.65747" lon="1.91556">
        <ele>180.87</ele>
        <time>2022-04-26T09:13:34Z</time>
      </trkpt>
      <trkpt lat="48.65763" lon="1.91581">
        <ele>180.87</ele>
        <time>2022-04-26T09:13:21Z</time>
      </trkpt>
      <trkpt lat="48.65775" lon="1.9159">
        <ele>179.9</ele>
        <time>2022-04-26T09:13:12Z</time>
      </trkpt>
      <trkpt lat="48.65778" lon="1.91592">
        <ele>179.9</ele>
        <time>2022-04-26T09:13:10Z</time>
      </trkpt>
      <trkpt lat="48.6579" lon="1.91606">
        <ele>179.9</ele>
        <time>2022-04-26T09:12:58Z</time>
      </trkpt>
      <trkpt lat="48.65806" lon="1.91629">
        <ele>179.9</ele>
        <time>2022-04-26T09:12:44Z</time>
      </trkpt>
      <trkpt lat="48.65826" lon="1.91663">
        <ele>179.9</ele>
        <time>2022-04-26T09:12:21Z</time>
      </trkpt>
      <trkpt lat="48.6583" lon="1.91669">
        <ele>179.9</ele>
        <time>2022-04-26T09:12:18Z</time>
      </trkpt>
      <trkpt lat="48.65834" lon="1.91674">
        <ele>179.9</ele>
        <time>2022-04-26T09:12:13Z</time>
      </trkpt>
      <trkpt lat="48.6585" lon="1.91686">
        <ele>178.94</ele>
        <time>2022-04-26T09:11:53Z</time>
      </trkpt>
      <trkpt lat="48.65861" lon="1.91697">
        <ele>178.94</ele>
        <time>2022-04-26T09:11:38Z</time>
      </trkpt>
      <trkpt lat="48.65862" lon="1.91717">
        <ele>179.9</ele>
        <time>2022-04-26T09:11:19Z</time>
      </trkpt>
      <trkpt lat="48.65856" lon="1.91741">
        <ele>178.94</ele>
        <time>2022-04-26T09:10:59Z</time>
      </trkpt>
      <trkpt lat="48.65856" lon="1.91751">
        <ele>178.94</ele>
        <time>2022-04-26T09:10:55Z</time>
      </trkpt>
      <trkpt lat="48.65855" lon="1.91782">
        <ele>178.94</ele>
        <time>2022-04-26T09:10:43Z</time>
      </trkpt>
      <trkpt lat="48.65854" lon="1.91819">
        <ele>178.94</ele>
        <time>2022-04-26T09:10:23Z</time>
      </trkpt>
      <trkpt lat="48.65854" lon="1.91848">
        <ele>178.94</ele>
        <time>2022-04-26T09:10:09Z</time>
      </trkpt>
      <trkpt lat="48.65854" lon="1.91851">
        <ele>178.94</ele>
        <time>2022-04-26T09:10:08Z</time>
      </trkpt>
      <trkpt lat="48.65854" lon="1.91854">
        <ele>178.94</ele>
        <time>2022-04-26T09:10:07Z</time>
      </trkpt>
      <trkpt lat="48.65857" lon="1.91891">
        <ele>178.94</ele>
        <time>2022-04-26T09:09:44Z</time>
      </trkpt>
      <trkpt lat="48.65866" lon="1.91906">
        <ele>178.94</ele>
        <time>2022-04-26T09:09:27Z</time>
      </trkpt>
      <trkpt lat="48.65867" lon="1.91907">
        <ele>178.94</ele>
        <time>2022-04-26T09:09:26Z</time>
      </trkpt>
      <trkpt lat="48.65868" lon="1.91906">
        <ele>178.94</ele>
        <time>2022-04-26T09:09:25Z</time>
      </trkpt>
      <trkpt lat="48.65872" lon="1.91903">
        <ele>178.94</ele>
        <time>2022-04-26T09:09:21Z</time>
      </trkpt>
      <trkpt lat="48.65875" lon="1.91902">
        <ele>178.94</ele>
        <time>2022-04-26T09:09:18Z</time>
      </trkpt>
      <trkpt lat="48.65895" lon="1.91903">
        <ele>178.94</ele>
        <time>2022-04-26T09:09:01Z</time>
      </trkpt>
      <trkpt lat="48.65912" lon="1.91897">
        <ele>178.94</ele>
        <time>2022-04-26T09:08:46Z</time>
      </trkpt>
      <trkpt lat="48.65932" lon="1.91891">
        <ele>178.94</ele>
        <time>2022-04-26T09:08:31Z</time>
      </trkpt>
      <trkpt lat="48.65959" lon="1.91883">
        <ele>179.9</ele>
        <time>2022-04-26T09:08:13Z</time>
      </trkpt>
      <trkpt lat="48.65985" lon="1.9188">
        <ele>179.9</ele>
        <time>2022-04-26T09:07:55Z</time>
      </trkpt>
      <trkpt lat="48.66001" lon="1.91873">
        <ele>179.9</ele>
        <time>2022-04-26T09:07:42Z</time>
      </trkpt>
      <trkpt lat="48.66029" lon="1.91867">
        <ele>179.9</ele>
        <time>2022-04-26T09:07:23Z</time>
      </trkpt>
      <trkpt lat="48.66048" lon="1.91863">
        <ele>180.87</ele>
        <time>2022-04-26T09:07:08Z</time>
      </trkpt>
      <trkpt lat="48.66067" lon="1.91862">
        <ele>180.87</ele>
        <time>2022-04-26T09:06:52Z</time>
      </trkpt>
      <trkpt lat="48.66068" lon="1.91862">
        <ele>180.87</ele>
        <time>2022-04-26T09:06:51Z</time>
      </trkpt>
      <trkpt lat="48.66069" lon="1.91862">
        <ele>180.87</ele>
        <time>2022-04-26T09:06:50Z</time>
      </trkpt>
      <trkpt lat="48.66073" lon="1.91863">
        <ele>180.87</ele>
        <time>2022-04-26T09:06:44Z</time>
      </trkpt>
      <trkpt lat="48.66083" lon="1.9186">
        <ele>180.87</ele>
        <time>2022-04-26T09:06:27Z</time>
      </trkpt>
      <trkpt lat="48.66085" lon="1.91857">
        <ele>180.87</ele>
        <time>2022-04-26T09:05:38Z</time>
      </trkpt>
      <trkpt lat="48.66087" lon="1.91851">
        <ele>180.87</ele>
        <time>2022-04-26T09:05:22Z</time>
      </trkpt>
      <trkpt lat="48.66094" lon="1.91851">
        <ele>181.83</ele>
        <time>2022-04-26T09:05:03Z</time>
      </trkpt>
      <trkpt lat="48.66109" lon="1.91847">
        <ele>181.83</ele>
        <time>2022-04-26T09:04:46Z</time>
      </trkpt>
      <trkpt lat="48.66145" lon="1.91838">
        <ele>181.83</ele>
        <time>2022-04-26T09:04:24Z</time>
      </trkpt>
      <trkpt lat="48.66168" lon="1.91833">
        <ele>182.79</ele>
        <time>2022-04-26T09:04:10Z</time>
      </trkpt>
      <trkpt lat="48.66194" lon="1.91826">
        <ele>182.79</ele>
        <time>2022-04-26T09:03:54Z</time>
      </trkpt>
      <trkpt lat="48.66216" lon="1.91824">
        <ele>182.79</ele>
        <time>2022-04-26T09:03:41Z</time>
      </trkpt>
      <trkpt lat="48.66218" lon="1.91823">
        <ele>182.79</ele>
        <time>2022-04-26T09:03:40Z</time>
      </trkpt>
      <trkpt lat="48.66226" lon="1.9182">
        <ele>182.79</ele>
        <time>2022-04-26T09:03:34Z</time>
      </trkpt>
      <trkpt lat="48.66252" lon="1.91811">
        <ele>182.79</ele>
        <time>2022-04-26T09:03:19Z</time>
      </trkpt>
      <trkpt lat="48.66271" lon="1.91806">
        <ele>182.79</ele>
        <time>2022-04-26T09:03:04Z</time>
      </trkpt>
      <trkpt lat="48.66291" lon="1.918">
        <ele>182.79</ele>
        <time>2022-04-26T09:02:52Z</time>
      </trkpt>
      <trkpt lat="48.66326" lon="1.91788">
        <ele>182.79</ele>
        <time>2022-04-26T09:02:29Z</time>
      </trkpt>
      <trkpt lat="48.66328" lon="1.91788">
        <ele>182.79</ele>
        <time>2022-04-26T09:02:28Z</time>
      </trkpt>
      <trkpt lat="48.6633" lon="1.91789">
        <ele>182.79</ele>
        <time>2022-04-26T09:02:27Z</time>
      </trkpt>
      <trkpt lat="48.66349" lon="1.91785">
        <ele>184.23</ele>
        <time>2022-04-26T09:02:14Z</time>
      </trkpt>
      <trkpt lat="48.66369" lon="1.91781">
        <ele>184.23</ele>
        <time>2022-04-26T09:02:01Z</time>
      </trkpt>
      <trkpt lat="48.66398" lon="1.91769">
        <ele>184.23</ele>
        <time>2022-04-26T09:01:43Z</time>
      </trkpt>
      <trkpt lat="48.66423" lon="1.91765">
        <ele>184.23</ele>
        <time>2022-04-26T09:01:27Z</time>
      </trkpt>
      <trkpt lat="48.66454" lon="1.91753">
        <ele>184.23</ele>
        <time>2022-04-26T09:01:07Z</time>
      </trkpt>
      <trkpt lat="48.66479" lon="1.91744">
        <ele>182.79</ele>
        <time>2022-04-26T09:00:53Z</time>
      </trkpt>
      <trkpt lat="48.6648" lon="1.91744">
        <ele>182.79</ele>
        <time>2022-04-26T09:00:52Z</time>
      </trkpt>
      <trkpt lat="48.66482" lon="1.91744">
        <ele>182.79</ele>
        <time>2022-04-26T09:00:51Z</time>
      </trkpt>
      <trkpt lat="48.66484" lon="1.91744">
        <ele>182.79</ele>
        <time>2022-04-26T09:00:50Z</time>
      </trkpt>
      <trkpt lat="48.66486" lon="1.91744">
        <ele>182.79</ele>
        <time>2022-04-26T09:00:49Z</time>
      </trkpt>
      <trkpt lat="48.66489" lon="1.91744">
        <ele>182.79</ele>
        <time>2022-04-26T09:00:48Z</time>
      </trkpt>
      <trkpt lat="48.66491" lon="1.91744">
        <ele>182.79</ele>
        <time>2022-04-26T09:00:47Z</time>
      </trkpt>
      <trkpt lat="48.66501" lon="1.91742">
        <ele>182.79</ele>
        <time>2022-04-26T09:00:39Z</time>
      </trkpt>
      <trkpt lat="48.66516" lon="1.91733">
        <ele>182.79</ele>
        <time>2022-04-26T09:00:26Z</time>
      </trkpt>
      <trkpt lat="48.66534" lon="1.91726">
        <ele>182.79</ele>
        <time>2022-04-26T09:00:14Z</time>
      </trkpt>
      <trkpt lat="48.66536" lon="1.91726">
        <ele>182.79</ele>
        <time>2022-04-26T09:00:13Z</time>
      </trkpt>
      <trkpt lat="48.66555" lon="1.91715">
        <ele>182.79</ele>
        <time>2022-04-26T08:59:59Z</time>
      </trkpt>
      <trkpt lat="48.66572" lon="1.91703">
        <ele>184.23</ele>
        <time>2022-04-26T08:59:47Z</time>
      </trkpt>
      <trkpt lat="48.66573" lon="1.91702">
        <ele>184.23</ele>
        <time>2022-04-26T08:59:46Z</time>
      </trkpt>
      <trkpt lat="48.66595" lon="1.9169">
        <ele>184.23</ele>
        <time>2022-04-26T08:59:33Z</time>
      </trkpt>
      <trkpt lat="48.66611" lon="1.91678">
        <ele>184.23</ele>
        <time>2022-04-26T08:59:20Z</time>
      </trkpt>
      <trkpt lat="48.66612" lon="1.91677">
        <ele>184.23</ele>
        <time>2022-04-26T08:59:19Z</time>
      </trkpt>
      <trkpt lat="48.66614" lon="1.91676">
        <ele>184.23</ele>
        <time>2022-04-26T08:59:18Z</time>
      </trkpt>
      <trkpt lat="48.66615" lon="1.91675">
        <ele>184.23</ele>
        <time>2022-04-26T08:59:17Z</time>
      </trkpt>
      <trkpt lat="48.66616" lon="1.91674">
        <ele>184.23</ele>
        <time>2022-04-26T08:59:16Z</time>
      </trkpt>
      <trkpt lat="48.66618" lon="1.91673">
        <ele>184.23</ele>
        <time>2022-04-26T08:59:15Z</time>
      </trkpt>
      <trkpt lat="48.66631" lon="1.91662">
        <ele>184.23</ele>
        <time>2022-04-26T08:59:05Z</time>
      </trkpt>
      <trkpt lat="48.66632" lon="1.91661">
        <ele>184.23</ele>
        <time>2022-04-26T08:59:04Z</time>
      </trkpt>
      <trkpt lat="48.66643" lon="1.91652">
        <ele>184.23</ele>
        <time>2022-04-26T08:58:56Z</time>
      </trkpt>
      <trkpt lat="48.66645" lon="1.91651">
        <ele>184.23</ele>
        <time>2022-04-26T08:58:55Z</time>
      </trkpt>
      <trkpt lat="48.66646" lon="1.9165">
        <ele>184.23</ele>
        <time>2022-04-26T08:58:54Z</time>
      </trkpt>
      <trkpt lat="48.66648" lon="1.9165">
        <ele>184.23</ele>
        <time>2022-04-26T08:58:53Z</time>
      </trkpt>
      <trkpt lat="48.6665" lon="1.91649">
        <ele>184.23</ele>
        <time>2022-04-26T08:58:52Z</time>
      </trkpt>
      <trkpt lat="48.66652" lon="1.91648">
        <ele>184.23</ele>
        <time>2022-04-26T08:58:51Z</time>
      </trkpt>
      <trkpt lat="48.66659" lon="1.91642">
        <ele>184.23</ele>
        <time>2022-04-26T08:58:46Z</time>
      </trkpt>
      <trkpt lat="48.66661" lon="1.91641">
        <ele>184.23</ele>
        <time>2022-04-26T08:58:45Z</time>
      </trkpt>
      <trkpt lat="48.66662" lon="1.9164">
        <ele>184.23</ele>
        <time>2022-04-26T08:58:44Z</time>
      </trkpt>
      <trkpt lat="48.66664" lon="1.91639">
        <ele>184.23</ele>
        <time>2022-04-26T08:58:43Z</time>
      </trkpt>
      <trkpt lat="48.66666" lon="1.91638">
        <ele>184.23</ele>
        <time>2022-04-26T08:58:42Z</time>
      </trkpt>
      <trkpt lat="48.66667" lon="1.91637">
        <ele>184.23</ele>
        <time>2022-04-26T08:58:41Z</time>
      </trkpt>
      <trkpt lat="48.66669" lon="1.91636">
        <ele>184.23</ele>
        <time>2022-04-26T08:58:40Z</time>
      </trkpt>
      <trkpt lat="48.6667" lon="1.91634">
        <ele>184.23</ele>
        <time>2022-04-26T08:58:39Z</time>
      </trkpt>
      <trkpt lat="48.66672" lon="1.91633">
        <ele>184.23</ele>
        <time>2022-04-26T08:58:38Z</time>
      </trkpt>
      <trkpt lat="48.66675" lon="1.91631">
        <ele>184.23</ele>
        <time>2022-04-26T08:58:37Z</time>
      </trkpt>
      <trkpt lat="48.66679" lon="1.91628">
        <ele>184.23</ele>
        <time>2022-04-26T08:58:34Z</time>
      </trkpt>
      <trkpt lat="48.66696" lon="1.91617">
        <ele>184.23</ele>
        <time>2022-04-26T08:58:20Z</time>
      </trkpt>
      <trkpt lat="48.66716" lon="1.91605">
        <ele>184.23</ele>
        <time>2022-04-26T08:58:07Z</time>
      </trkpt>
      <trkpt lat="48.66718" lon="1.91603">
        <ele>184.23</ele>
        <time>2022-04-26T08:58:06Z</time>
      </trkpt>
      <trkpt lat="48.66721" lon="1.91601">
        <ele>184.23</ele>
        <time>2022-04-26T08:58:05Z</time>
      </trkpt>
      <trkpt lat="48.66726" lon="1.91597">
        <ele>184.23</ele>
        <time>2022-04-26T08:58:00Z</time>
      </trkpt>
      <trkpt lat="48.66734" lon="1.91589">
        <ele>184.23</ele>
        <time>2022-04-26T08:57:54Z</time>
      </trkpt>
      <trkpt lat="48.66762" lon="1.91572">
        <ele>184.23</ele>
        <time>2022-04-26T08:57:38Z</time>
      </trkpt>
      <trkpt lat="48.66763" lon="1.91571">
        <ele>184.23</ele>
        <time>2022-04-26T08:57:37Z</time>
      </trkpt>
      <trkpt lat="48.66783" lon="1.91552">
        <ele>184.23</ele>
        <time>2022-04-26T08:57:24Z</time>
      </trkpt>
      <trkpt lat="48.668" lon="1.91535">
        <ele>182.79</ele>
        <time>2022-04-26T08:57:07Z</time>
      </trkpt>
      <trkpt lat="48.66823" lon="1.91526">
        <ele>182.79</ele>
        <time>2022-04-26T08:56:50Z</time>
      </trkpt>
      <trkpt lat="48.66824" lon="1.91526">
        <ele>182.79</ele>
        <time>2022-04-26T08:56:49Z</time>
      </trkpt>
      <trkpt lat="48.66826" lon="1.91526">
        <ele>182.79</ele>
        <time>2022-04-26T08:56:48Z</time>
      </trkpt>
      <trkpt lat="48.66828" lon="1.91525">
        <ele>182.79</ele>
        <time>2022-04-26T08:56:47Z</time>
      </trkpt>
      <trkpt lat="48.66849" lon="1.91519">
        <ele>182.79</ele>
        <time>2022-04-26T08:56:32Z</time>
      </trkpt>
      <trkpt lat="48.6687" lon="1.91512">
        <ele>184.23</ele>
        <time>2022-04-26T08:56:17Z</time>
      </trkpt>
      <trkpt lat="48.6689" lon="1.91504">
        <ele>184.23</ele>
        <time>2022-04-26T08:56:04Z</time>
      </trkpt>
      <trkpt lat="48.6692" lon="1.91492">
        <ele>184.23</ele>
        <time>2022-04-26T08:55:45Z</time>
      </trkpt>
      <trkpt lat="48.66922" lon="1.91491">
        <ele>184.23</ele>
        <time>2022-04-26T08:55:44Z</time>
      </trkpt>
      <trkpt lat="48.66923" lon="1.9149">
        <ele>184.23</ele>
        <time>2022-04-26T08:55:43Z</time>
      </trkpt>
      <trkpt lat="48.66924" lon="1.9149">
        <ele>184.23</ele>
        <time>2022-04-26T08:55:42Z</time>
      </trkpt>
      <trkpt lat="48.66926" lon="1.91489">
        <ele>184.23</ele>
        <time>2022-04-26T08:55:41Z</time>
      </trkpt>
      <trkpt lat="48.66927" lon="1.91488">
        <ele>184.23</ele>
        <time>2022-04-26T08:55:40Z</time>
      </trkpt>
      <trkpt lat="48.66928" lon="1.91487">
        <ele>184.23</ele>
        <time>2022-04-26T08:55:39Z</time>
      </trkpt>
      <trkpt lat="48.66932" lon="1.91486">
        <ele>184.23</ele>
        <time>2022-04-26T08:55:36Z</time>
      </trkpt>
      <trkpt lat="48.66951" lon="1.91477">
        <ele>184.23</ele>
        <time>2022-04-26T08:55:23Z</time>
      </trkpt>
      <trkpt lat="48.66969" lon="1.91468">
        <ele>184.23</ele>
        <time>2022-04-26T08:55:11Z</time>
      </trkpt>
      <trkpt lat="48.66971" lon="1.91467">
        <ele>184.23</ele>
        <time>2022-04-26T08:55:10Z</time>
      </trkpt>
      <trkpt lat="48.66973" lon="1.91466">
        <ele>184.23</ele>
        <time>2022-04-26T08:55:09Z</time>
      </trkpt>
      <trkpt lat="48.66974" lon="1.91465">
        <ele>184.23</ele>
        <time>2022-04-26T08:55:08Z</time>
      </trkpt>
      <trkpt lat="48.66976" lon="1.91465">
        <ele>184.23</ele>
        <time>2022-04-26T08:55:07Z</time>
      </trkpt>
      <trkpt lat="48.6698" lon="1.91462">
        <ele>184.23</ele>
        <time>2022-04-26T08:55:04Z</time>
      </trkpt>
      <trkpt lat="48.67008" lon="1.91446">
        <ele>184.23</ele>
        <time>2022-04-26T08:54:46Z</time>
      </trkpt>
      <trkpt lat="48.67025" lon="1.91437">
        <ele>184.23</ele>
        <time>2022-04-26T08:54:33Z</time>
      </trkpt>
      <trkpt lat="48.67048" lon="1.91423">
        <ele>184.23</ele>
        <time>2022-04-26T08:54:16Z</time>
      </trkpt>
      <trkpt lat="48.6705" lon="1.91423">
        <ele>184.23</ele>
        <time>2022-04-26T08:54:15Z</time>
      </trkpt>
      <trkpt lat="48.67051" lon="1.91422">
        <ele>184.23</ele>
        <time>2022-04-26T08:54:14Z</time>
      </trkpt>
      <trkpt lat="48.67056" lon="1.9142">
        <ele>184.23</ele>
        <time>2022-04-26T08:54:11Z</time>
      </trkpt>
      <trkpt lat="48.67057" lon="1.91419">
        <ele>184.23</ele>
        <time>2022-04-26T08:54:10Z</time>
      </trkpt>
      <trkpt lat="48.67063" lon="1.91413">
        <ele>184.23</ele>
        <time>2022-04-26T08:54:04Z</time>
      </trkpt>
      <trkpt lat="48.67072" lon="1.91406">
        <ele>184.23</ele>
        <time>2022-04-26T08:53:56Z</time>
      </trkpt>
      <trkpt lat="48.67073" lon="1.91406">
        <ele>184.23</ele>
        <time>2022-04-26T08:53:55Z</time>
      </trkpt>
      <trkpt lat="48.67094" lon="1.91389">
        <ele>184.23</ele>
        <time>2022-04-26T08:53:38Z</time>
      </trkpt>
      <trkpt lat="48.67117" lon="1.91375">
        <ele>184.23</ele>
        <time>2022-04-26T08:53:20Z</time>
      </trkpt>
      <trkpt lat="48.67135" lon="1.9137">
        <ele>184.23</ele>
        <time>2022-04-26T08:53:03Z</time>
      </trkpt>
      <trkpt lat="48.67136" lon="1.91369">
        <ele>184.23</ele>
        <time>2022-04-26T08:53:02Z</time>
      </trkpt>
      <trkpt lat="48.67137" lon="1.91369">
        <ele>184.23</ele>
        <time>2022-04-26T08:53:01Z</time>
      </trkpt>
      <trkpt lat="48.67139" lon="1.91369">
        <ele>184.23</ele>
        <time>2022-04-26T08:53:00Z</time>
      </trkpt>
      <trkpt lat="48.6714" lon="1.91369">
        <ele>184.23</ele>
        <time>2022-04-26T08:52:59Z</time>
      </trkpt>
      <trkpt lat="48.67141" lon="1.91368">
        <ele>184.23</ele>
        <time>2022-04-26T08:52:58Z</time>
      </trkpt>
      <trkpt lat="48.67142" lon="1.91368">
        <ele>184.23</ele>
        <time>2022-04-26T08:52:57Z</time>
      </trkpt>
      <trkpt lat="48.67143" lon="1.91368">
        <ele>184.23</ele>
        <time>2022-04-26T08:52:56Z</time>
      </trkpt>
      <trkpt lat="48.6715" lon="1.91369">
        <ele>184.23</ele>
        <time>2022-04-26T08:52:46Z</time>
      </trkpt>
      <trkpt lat="48.67155" lon="1.91373">
        <ele>185.19</ele>
        <time>2022-04-26T08:52:31Z</time>
      </trkpt>
      <trkpt lat="48.67175" lon="1.91388">
        <ele>185.19</ele>
        <time>2022-04-26T08:52:13Z</time>
      </trkpt>
      <trkpt lat="48.67194" lon="1.91405">
        <ele>185.19</ele>
        <time>2022-04-26T08:51:59Z</time>
      </trkpt>
      <trkpt lat="48.67195" lon="1.91406">
        <ele>185.19</ele>
        <time>2022-04-26T08:51:58Z</time>
      </trkpt>
      <trkpt lat="48.67197" lon="1.91407">
        <ele>185.19</ele>
        <time>2022-04-26T08:51:57Z</time>
      </trkpt>
      <trkpt lat="48.67198" lon="1.91408">
        <ele>185.19</ele>
        <time>2022-04-26T08:51:56Z</time>
      </trkpt>
      <trkpt lat="48.67199" lon="1.91409">
        <ele>185.19</ele>
        <time>2022-04-26T08:51:55Z</time>
      </trkpt>
      <trkpt lat="48.672" lon="1.9141">
        <ele>185.19</ele>
        <time>2022-04-26T08:51:54Z</time>
      </trkpt>
      <trkpt lat="48.67202" lon="1.91411">
        <ele>185.19</ele>
        <time>2022-04-26T08:51:53Z</time>
      </trkpt>
      <trkpt lat="48.67203" lon="1.91412">
        <ele>185.19</ele>
        <time>2022-04-26T08:51:52Z</time>
      </trkpt>
      <trkpt lat="48.67205" lon="1.91413">
        <ele>185.19</ele>
        <time>2022-04-26T08:51:51Z</time>
      </trkpt>
      <trkpt lat="48.67206" lon="1.91415">
        <ele>185.19</ele>
        <time>2022-04-26T08:51:50Z</time>
      </trkpt>
      <trkpt lat="48.67207" lon="1.91416">
        <ele>185.19</ele>
        <time>2022-04-26T08:51:49Z</time>
      </trkpt>
      <trkpt lat="48.67213" lon="1.91424">
        <ele>185.19</ele>
        <time>2022-04-26T08:51:44Z</time>
      </trkpt>
      <trkpt lat="48.67235" lon="1.91446">
        <ele>185.19</ele>
        <time>2022-04-26T08:51:28Z</time>
      </trkpt>
      <trkpt lat="48.67257" lon="1.91466">
        <ele>185.19</ele>
        <time>2022-04-26T08:51:09Z</time>
      </trkpt>
      <trkpt lat="48.67258" lon="1.91467">
        <ele>185.19</ele>
        <time>2022-04-26T08:51:08Z</time>
      </trkpt>
      <trkpt lat="48.67259" lon="1.91468">
        <ele>185.19</ele>
        <time>2022-04-26T08:51:07Z</time>
      </trkpt>
      <trkpt lat="48.6726" lon="1.9147">
        <ele>185.19</ele>
        <time>2022-04-26T08:51:06Z</time>
      </trkpt>
      <trkpt lat="48.67261" lon="1.91472">
        <ele>185.19</ele>
        <time>2022-04-26T08:51:05Z</time>
      </trkpt>
      <trkpt lat="48.67262" lon="1.91473">
        <ele>185.19</ele>
        <time>2022-04-26T08:51:04Z</time>
      </trkpt>
      <trkpt lat="48.67262" lon="1.91474">
        <ele>185.19</ele>
        <time>2022-04-26T08:51:03Z</time>
      </trkpt>
      <trkpt lat="48.67263" lon="1.91475">
        <ele>185.19</ele>
        <time>2022-04-26T08:51:02Z</time>
      </trkpt>
      <trkpt lat="48.67264" lon="1.91476">
        <ele>185.19</ele>
        <time>2022-04-26T08:51:01Z</time>
      </trkpt>
      <trkpt lat="48.67266" lon="1.91476">
        <ele>185.19</ele>
        <time>2022-04-26T08:51:00Z</time>
      </trkpt>
      <trkpt lat="48.67267" lon="1.91477">
        <ele>185.19</ele>
        <time>2022-04-26T08:50:59Z</time>
      </trkpt>
      <trkpt lat="48.6728" lon="1.91488">
        <ele>185.19</ele>
        <time>2022-04-26T08:50:45Z</time>
      </trkpt>
      <trkpt lat="48.67281" lon="1.91488">
        <ele>185.19</ele>
        <time>2022-04-26T08:50:44Z</time>
      </trkpt>
      <trkpt lat="48.67282" lon="1.9149">
        <ele>185.19</ele>
        <time>2022-04-26T08:50:43Z</time>
      </trkpt>
      <trkpt lat="48.67283" lon="1.91491">
        <ele>185.19</ele>
        <time>2022-04-26T08:50:42Z</time>
      </trkpt>
      <trkpt lat="48.67284" lon="1.91491">
        <ele>185.19</ele>
        <time>2022-04-26T08:50:41Z</time>
      </trkpt>
      <trkpt lat="48.67285" lon="1.91493">
        <ele>185.19</ele>
        <time>2022-04-26T08:50:40Z</time>
      </trkpt>
      <trkpt lat="48.67286" lon="1.91494">
        <ele>185.19</ele>
        <time>2022-04-26T08:50:39Z</time>
      </trkpt>
      <trkpt lat="48.67291" lon="1.91498">
        <ele>185.19</ele>
        <time>2022-04-26T08:50:28Z</time>
      </trkpt>
      <trkpt lat="48.67305" lon="1.91513">
        <ele>186.15</ele>
        <time>2022-04-26T08:50:12Z</time>
      </trkpt>
      <trkpt lat="48.67307" lon="1.91515">
        <ele>186.15</ele>
        <time>2022-04-26T08:50:09Z</time>
      </trkpt>
      <trkpt lat="48.6731" lon="1.91518">
        <ele>185.19</ele>
        <time>2022-04-26T08:50:05Z</time>
      </trkpt>
      <trkpt lat="48.67311" lon="1.91521">
        <ele>185.19</ele>
        <time>2022-04-26T08:50:04Z</time>
      </trkpt>
      <trkpt lat="48.67313" lon="1.91524">
        <ele>185.19</ele>
        <time>2022-04-26T08:50:02Z</time>
      </trkpt>
      <trkpt lat="48.67332" lon="1.91541">
        <ele>186.15</ele>
        <time>2022-04-26T08:49:44Z</time>
      </trkpt>
      <trkpt lat="48.67333" lon="1.91541">
        <ele>186.15</ele>
        <time>2022-04-26T08:49:43Z</time>
      </trkpt>
      <trkpt lat="48.67334" lon="1.91542">
        <ele>186.15</ele>
        <time>2022-04-26T08:49:42Z</time>
      </trkpt>
      <trkpt lat="48.67335" lon="1.91542">
        <ele>186.15</ele>
        <time>2022-04-26T08:49:41Z</time>
      </trkpt>
      <trkpt lat="48.67336" lon="1.91542">
        <ele>186.15</ele>
        <time>2022-04-26T08:49:40Z</time>
      </trkpt>
      <trkpt lat="48.6734" lon="1.91545">
        <ele>186.15</ele>
        <time>2022-04-26T08:49:35Z</time>
      </trkpt>
      <trkpt lat="48.67348" lon="1.91558">
        <ele>186.15</ele>
        <time>2022-04-26T08:49:19Z</time>
      </trkpt>
      <trkpt lat="48.67347" lon="1.91569">
        <ele>186.15</ele>
        <time>2022-04-26T08:49:04Z</time>
      </trkpt>
      <trkpt lat="48.67352" lon="1.91572">
        <ele>186.15</ele>
        <time>2022-04-26T08:48:51Z</time>
      </trkpt>
      <trkpt lat="48.67353" lon="1.91574">
        <ele>187.11</ele>
        <time>2022-04-26T08:48:29Z</time>
      </trkpt>
      <trkpt lat="48.67356" lon="1.9159">
        <ele>187.11</ele>
        <time>2022-04-26T08:48:14Z</time>
      </trkpt>
      <trkpt lat="48.67344" lon="1.91609">
        <ele>187.11</ele>
        <time>2022-04-26T08:47:57Z</time>
      </trkpt>
      <trkpt lat="48.67325" lon="1.91633">
        <ele>187.11</ele>
        <time>2022-04-26T08:47:39Z</time>
      </trkpt>
      <trkpt lat="48.67304" lon="1.91661">
        <ele>186.15</ele>
        <time>2022-04-26T08:47:19Z</time>
      </trkpt>
      <trkpt lat="48.6728" lon="1.91691">
        <ele>186.15</ele>
        <time>2022-04-26T08:46:57Z</time>
      </trkpt>
      <trkpt lat="48.67259" lon="1.91715">
        <ele>187.11</ele>
        <time>2022-04-26T08:46:37Z</time>
      </trkpt>
      <trkpt lat="48.67236" lon="1.91743">
        <ele>187.11</ele>
        <time>2022-04-26T08:46:16Z</time>
      </trkpt>
      <trkpt lat="48.67212" lon="1.91773">
        <ele>187.11</ele>
        <time>2022-04-26T08:45:55Z</time>
      </trkpt>
      <trkpt lat="48.67182" lon="1.91811">
        <ele>187.11</ele>
        <time>2022-04-26T08:45:29Z</time>
      </trkpt>
      <trkpt lat="48.67162" lon="1.91846">
        <ele>187.11</ele>
        <time>2022-04-26T08:45:09Z</time>
      </trkpt>
      <trkpt lat="48.6714" lon="1.91888">
        <ele>187.11</ele>
        <time>2022-04-26T08:44:45Z</time>
      </trkpt>
      <trkpt lat="48.67139" lon="1.9189">
        <ele>187.11</ele>
        <time>2022-04-26T08:44:44Z</time>
      </trkpt>
      <trkpt lat="48.67139" lon="1.91892">
        <ele>187.11</ele>
        <time>2022-04-26T08:44:43Z</time>
      </trkpt>
      <trkpt lat="48.67138" lon="1.91894">
        <ele>187.11</ele>
        <time>2022-04-26T08:44:42Z</time>
      </trkpt>
      <trkpt lat="48.67138" lon="1.91896">
        <ele>187.11</ele>
        <time>2022-04-26T08:44:41Z</time>
      </trkpt>
      <trkpt lat="48.67133" lon="1.91906">
        <ele>186.15</ele>
        <time>2022-04-26T08:44:35Z</time>
      </trkpt>
      <trkpt lat="48.67115" lon="1.91943">
        <ele>187.11</ele>
        <time>2022-04-26T08:44:15Z</time>
      </trkpt>
      <trkpt lat="48.67096" lon="1.9199">
        <ele>187.11</ele>
        <time>2022-04-26T08:43:51Z</time>
      </trkpt>
      <trkpt lat="48.67075" lon="1.92028">
        <ele>188.08</ele>
        <time>2022-04-26T08:43:30Z</time>
      </trkpt>
      <trkpt lat="48.6706" lon="1.92062">
        <ele>187.11</ele>
        <time>2022-04-26T08:43:10Z</time>
      </trkpt>
      <trkpt lat="48.67046" lon="1.92092">
        <ele>187.11</ele>
        <time>2022-04-26T08:42:53Z</time>
      </trkpt>
      <trkpt lat="48.67025" lon="1.9214">
        <ele>187.11</ele>
        <time>2022-04-26T08:42:28Z</time>
      </trkpt>
      <trkpt lat="48.67012" lon="1.92179">
        <ele>187.11</ele>
        <time>2022-04-26T08:42:08Z</time>
      </trkpt>
      <trkpt lat="48.66998" lon="1.92218">
        <ele>188.08</ele>
        <time>2022-04-26T08:41:47Z</time>
      </trkpt>
      <trkpt lat="48.66986" lon="1.9225">
        <ele>188.08</ele>
        <time>2022-04-26T08:41:28Z</time>
      </trkpt>
      <trkpt lat="48.66982" lon="1.92262">
        <ele>188.08</ele>
        <time>2022-04-26T08:41:15Z</time>
      </trkpt>
      <trkpt lat="48.66979" lon="1.92259">
        <ele>188.08</ele>
        <time>2022-04-26T08:40:13Z</time>
      </trkpt>
      <trkpt lat="48.66981" lon="1.92261">
        <ele>188.08</ele>
        <time>2022-04-26T08:39:44Z</time>
      </trkpt>
      <trkpt lat="48.66988" lon="1.92271">
        <ele>188.08</ele>
        <time>2022-04-26T08:39:17Z</time>
      </trkpt>
      <trkpt lat="48.67007" lon="1.92281">
        <ele>188.08</ele>
        <time>2022-04-26T08:38:58Z</time>
      </trkpt>
      <trkpt lat="48.6703" lon="1.92306">
        <ele>189.04</ele>
        <time>2022-04-26T08:38:42Z</time>
      </trkpt>
      <trkpt lat="48.67031" lon="1.92307">
        <ele>189.04</ele>
        <time>2022-04-26T08:38:41Z</time>
      </trkpt>
      <trkpt lat="48.67032" lon="1.92309">
        <ele>189.04</ele>
        <time>2022-04-26T08:38:40Z</time>
      </trkpt>
      <trkpt lat="48.67034" lon="1.92311">
        <ele>189.04</ele>
        <time>2022-04-26T08:38:39Z</time>
      </trkpt>
      <trkpt lat="48.67036" lon="1.92313">
        <ele>189.04</ele>
        <time>2022-04-26T08:38:38Z</time>
      </trkpt>
      <trkpt lat="48.67037" lon="1.92316">
        <ele>189.04</ele>
        <time>2022-04-26T08:38:37Z</time>
      </trkpt>
      <trkpt lat="48.67037" lon="1.92319">
        <ele>189.04</ele>
        <time>2022-04-26T08:38:36Z</time>
      </trkpt>
      <trkpt lat="48.67038" lon="1.92321">
        <ele>189.04</ele>
        <time>2022-04-26T08:38:35Z</time>
      </trkpt>
      <trkpt lat="48.6704" lon="1.92323">
        <ele>189.04</ele>
        <time>2022-04-26T08:38:34Z</time>
      </trkpt>
      <trkpt lat="48.67041" lon="1.92324">
        <ele>189.04</ele>
        <time>2022-04-26T08:38:33Z</time>
      </trkpt>
      <trkpt lat="48.67045" lon="1.92329">
        <ele>189.04</ele>
        <time>2022-04-26T08:38:29Z</time>
      </trkpt>
      <trkpt lat="48.67047" lon="1.9233">
        <ele>189.04</ele>
        <time>2022-04-26T08:38:28Z</time>
      </trkpt>
      <trkpt lat="48.67048" lon="1.92331">
        <ele>189.04</ele>
        <time>2022-04-26T08:38:27Z</time>
      </trkpt>
      <trkpt lat="48.67049" lon="1.92332">
        <ele>189.04</ele>
        <time>2022-04-26T08:38:26Z</time>
      </trkpt>
      <trkpt lat="48.6705" lon="1.92333">
        <ele>189.04</ele>
        <time>2022-04-26T08:38:25Z</time>
      </trkpt>
      <trkpt lat="48.6706" lon="1.92338">
        <ele>189.04</ele>
        <time>2022-04-26T08:38:18Z</time>
      </trkpt>
      <trkpt lat="48.67061" lon="1.92339">
        <ele>189.04</ele>
        <time>2022-04-26T08:38:17Z</time>
      </trkpt>
      <trkpt lat="48.67063" lon="1.92339">
        <ele>189.04</ele>
        <time>2022-04-26T08:38:16Z</time>
      </trkpt>
      <trkpt lat="48.67064" lon="1.9234">
        <ele>189.04</ele>
        <time>2022-04-26T08:38:15Z</time>
      </trkpt>
      <trkpt lat="48.67065" lon="1.92341">
        <ele>189.04</ele>
        <time>2022-04-26T08:38:14Z</time>
      </trkpt>
      <trkpt lat="48.67066" lon="1.92342">
        <ele>189.04</ele>
        <time>2022-04-26T08:38:13Z</time>
      </trkpt>
      <trkpt lat="48.67067" lon="1.92343">
        <ele>189.04</ele>
        <time>2022-04-26T08:38:12Z</time>
      </trkpt>
      <trkpt lat="48.67069" lon="1.92346">
        <ele>189.04</ele>
        <time>2022-04-26T08:38:10Z</time>
      </trkpt>
      <trkpt lat="48.6707" lon="1.92348">
        <ele>189.04</ele>
        <time>2022-04-26T08:38:09Z</time>
      </trkpt>
      <trkpt lat="48.67071" lon="1.9235">
        <ele>189.04</ele>
        <time>2022-04-26T08:38:08Z</time>
      </trkpt>
      <trkpt lat="48.67072" lon="1.92353">
        <ele>189.04</ele>
        <time>2022-04-26T08:38:07Z</time>
      </trkpt>
      <trkpt lat="48.67073" lon="1.92355">
        <ele>189.04</ele>
        <time>2022-04-26T08:38:06Z</time>
      </trkpt>
      <trkpt lat="48.67078" lon="1.92363">
        <ele>189.04</ele>
        <time>2022-04-26T08:38:01Z</time>
      </trkpt>
      <trkpt lat="48.67078" lon="1.92364">
        <ele>189.04</ele>
        <time>2022-04-26T08:38:00Z</time>
      </trkpt>
      <trkpt lat="48.6708" lon="1.92365">
        <ele>189.04</ele>
        <time>2022-04-26T08:37:59Z</time>
      </trkpt>
      <trkpt lat="48.67081" lon="1.92367">
        <ele>189.04</ele>
        <time>2022-04-26T08:37:58Z</time>
      </trkpt>
      <trkpt lat="48.67082" lon="1.92368">
        <ele>189.04</ele>
        <time>2022-04-26T08:37:57Z</time>
      </trkpt>
      <trkpt lat="48.67083" lon="1.92369">
        <ele>189.04</ele>
        <time>2022-04-26T08:37:56Z</time>
      </trkpt>
      <trkpt lat="48.67085" lon="1.9237">
        <ele>189.04</ele>
        <time>2022-04-26T08:37:55Z</time>
      </trkpt>
      <trkpt lat="48.67086" lon="1.92371">
        <ele>189.04</ele>
        <time>2022-04-26T08:37:54Z</time>
      </trkpt>
      <trkpt lat="48.67088" lon="1.92372">
        <ele>189.04</ele>
        <time>2022-04-26T08:37:53Z</time>
      </trkpt>
      <trkpt lat="48.67089" lon="1.92374">
        <ele>189.04</ele>
        <time>2022-04-26T08:37:52Z</time>
      </trkpt>
      <trkpt lat="48.67091" lon="1.92375">
        <ele>189.04</ele>
        <time>2022-04-26T08:37:51Z</time>
      </trkpt>
      <trkpt lat="48.67108" lon="1.92387">
        <ele>189.04</ele>
        <time>2022-04-26T08:37:38Z</time>
      </trkpt>
      <trkpt lat="48.67109" lon="1.92389">
        <ele>189.04</ele>
        <time>2022-04-26T08:37:37Z</time>
      </trkpt>
      <trkpt lat="48.67109" lon="1.9239">
        <ele>189.04</ele>
        <time>2022-04-26T08:37:36Z</time>
      </trkpt>
      <trkpt lat="48.6711" lon="1.92392">
        <ele>189.04</ele>
        <time>2022-04-26T08:37:35Z</time>
      </trkpt>
      <trkpt lat="48.67111" lon="1.92394">
        <ele>189.04</ele>
        <time>2022-04-26T08:37:34Z</time>
      </trkpt>
      <trkpt lat="48.67118" lon="1.92405">
        <ele>189.04</ele>
        <time>2022-04-26T08:37:25Z</time>
      </trkpt>
      <trkpt lat="48.67119" lon="1.92407">
        <ele>189.04</ele>
        <time>2022-04-26T08:37:24Z</time>
      </trkpt>
      <trkpt lat="48.6712" lon="1.92408">
        <ele>189.04</ele>
        <time>2022-04-26T08:37:23Z</time>
      </trkpt>
      <trkpt lat="48.6713" lon="1.92422">
        <ele>189.04</ele>
        <time>2022-04-26T08:37:13Z</time>
      </trkpt>
      <trkpt lat="48.67132" lon="1.92424">
        <ele>190</ele>
        <time>2022-04-26T08:37:12Z</time>
      </trkpt>
      <trkpt lat="48.67133" lon="1.92425">
        <ele>190</ele>
        <time>2022-04-26T08:37:11Z</time>
      </trkpt>
      <trkpt lat="48.67135" lon="1.92426">
        <ele>190</ele>
        <time>2022-04-26T08:37:10Z</time>
      </trkpt>
      <trkpt lat="48.67136" lon="1.92427">
        <ele>190</ele>
        <time>2022-04-26T08:37:09Z</time>
      </trkpt>
      <trkpt lat="48.67137" lon="1.92428">
        <ele>190</ele>
        <time>2022-04-26T08:37:08Z</time>
      </trkpt>
      <trkpt lat="48.6715" lon="1.92441">
        <ele>190</ele>
        <time>2022-04-26T08:36:58Z</time>
      </trkpt>
      <trkpt lat="48.67151" lon="1.92442">
        <ele>190</ele>
        <time>2022-04-26T08:36:57Z</time>
      </trkpt>
      <trkpt lat="48.67153" lon="1.92444">
        <ele>190</ele>
        <time>2022-04-26T08:36:56Z</time>
      </trkpt>
      <trkpt lat="48.67154" lon="1.92445">
        <ele>190</ele>
        <time>2022-04-26T08:36:55Z</time>
      </trkpt>
      <trkpt lat="48.67155" lon="1.92447">
        <ele>190</ele>
        <time>2022-04-26T08:36:54Z</time>
      </trkpt>
      <trkpt lat="48.67155" lon="1.92449">
        <ele>190</ele>
        <time>2022-04-26T08:36:53Z</time>
      </trkpt>
      <trkpt lat="48.67172" lon="1.9246">
        <ele>190</ele>
        <time>2022-04-26T08:36:42Z</time>
      </trkpt>
      <trkpt lat="48.67175" lon="1.92462">
        <ele>190</ele>
        <time>2022-04-26T08:36:40Z</time>
      </trkpt>
      <trkpt lat="48.67176" lon="1.92463">
        <ele>190</ele>
        <time>2022-04-26T08:36:39Z</time>
      </trkpt>
      <trkpt lat="48.67178" lon="1.92464">
        <ele>190</ele>
        <time>2022-04-26T08:36:38Z</time>
      </trkpt>
      <trkpt lat="48.67179" lon="1.92466">
        <ele>190</ele>
        <time>2022-04-26T08:36:37Z</time>
      </trkpt>
      <trkpt lat="48.6718" lon="1.92467">
        <ele>190</ele>
        <time>2022-04-26T08:36:36Z</time>
      </trkpt>
      <trkpt lat="48.67182" lon="1.92468">
        <ele>190</ele>
        <time>2022-04-26T08:36:35Z</time>
      </trkpt>
      <trkpt lat="48.67185" lon="1.9247">
        <ele>190</ele>
        <time>2022-04-26T08:36:33Z</time>
      </trkpt>
      <trkpt lat="48.67206" lon="1.92486">
        <ele>190</ele>
        <time>2022-04-26T08:36:20Z</time>
      </trkpt>
      <trkpt lat="48.67227" lon="1.92507">
        <ele>190</ele>
        <time>2022-04-26T08:36:06Z</time>
      </trkpt>
      <trkpt lat="48.67245" lon="1.92531">
        <ele>190</ele>
        <time>2022-04-26T08:35:48Z</time>
      </trkpt>
      <trkpt lat="48.67246" lon="1.92533">
        <ele>190</ele>
        <time>2022-04-26T08:35:47Z</time>
      </trkpt>
      <trkpt lat="48.67248" lon="1.92535">
        <ele>190</ele>
        <time>2022-04-26T08:35:45Z</time>
      </trkpt>
      <trkpt lat="48.6725" lon="1.92537">
        <ele>190</ele>
        <time>2022-04-26T08:35:44Z</time>
      </trkpt>
      <trkpt lat="48.6726" lon="1.92549">
        <ele>190</ele>
        <time>2022-04-26T08:35:33Z</time>
      </trkpt>
      <trkpt lat="48.67261" lon="1.92551">
        <ele>190</ele>
        <time>2022-04-26T08:35:32Z</time>
      </trkpt>
      <trkpt lat="48.67268" lon="1.92562">
        <ele>190</ele>
        <time>2022-04-26T08:35:25Z</time>
      </trkpt>
      <trkpt lat="48.67269" lon="1.92564">
        <ele>190</ele>
        <time>2022-04-26T08:35:24Z</time>
      </trkpt>
      <trkpt lat="48.6727" lon="1.92566">
        <ele>190</ele>
        <time>2022-04-26T08:35:23Z</time>
      </trkpt>
      <trkpt lat="48.67271" lon="1.92568">
        <ele>190</ele>
        <time>2022-04-26T08:35:22Z</time>
      </trkpt>
      <trkpt lat="48.67272" lon="1.92569">
        <ele>190</ele>
        <time>2022-04-26T08:35:21Z</time>
      </trkpt>
      <trkpt lat="48.67273" lon="1.92572">
        <ele>190</ele>
        <time>2022-04-26T08:35:20Z</time>
      </trkpt>
      <trkpt lat="48.67273" lon="1.92574">
        <ele>190</ele>
        <time>2022-04-26T08:35:19Z</time>
      </trkpt>
      <trkpt lat="48.67274" lon="1.92576">
        <ele>190</ele>
        <time>2022-04-26T08:35:18Z</time>
      </trkpt>
      <trkpt lat="48.6728" lon="1.92581">
        <ele>190</ele>
        <time>2022-04-26T08:35:13Z</time>
      </trkpt>
      <trkpt lat="48.67295" lon="1.92599">
        <ele>189.04</ele>
        <time>2022-04-26T08:34:59Z</time>
      </trkpt>
      <trkpt lat="48.67311" lon="1.92624">
        <ele>189.04</ele>
        <time>2022-04-26T08:34:43Z</time>
      </trkpt>
      <trkpt lat="48.67325" lon="1.92655">
        <ele>189.04</ele>
        <time>2022-04-26T08:34:27Z</time>
      </trkpt>
      <trkpt lat="48.67341" lon="1.92683">
        <ele>189.04</ele>
        <time>2022-04-26T08:34:12Z</time>
      </trkpt>
      <trkpt lat="48.67355" lon="1.92722">
        <ele>189.04</ele>
        <time>2022-04-26T08:33:54Z</time>
      </trkpt>
      <trkpt lat="48.67367" lon="1.92758">
        <ele>188.08</ele>
        <time>2022-04-26T08:33:36Z</time>
      </trkpt>
      <trkpt lat="48.6738" lon="1.92787">
        <ele>188.08</ele>
        <time>2022-04-26T08:33:21Z</time>
      </trkpt>
      <trkpt lat="48.67398" lon="1.92814">
        <ele>188.08</ele>
        <time>2022-04-26T08:33:07Z</time>
      </trkpt>
      <trkpt lat="48.67408" lon="1.92842">
        <ele>187.11</ele>
        <time>2022-04-26T08:32:49Z</time>
      </trkpt>
      <trkpt lat="48.67409" lon="1.92843">
        <ele>187.11</ele>
        <time>2022-04-26T08:32:48Z</time>
      </trkpt>
      <trkpt lat="48.6741" lon="1.92844">
        <ele>187.11</ele>
        <time>2022-04-26T08:32:47Z</time>
      </trkpt>
      <trkpt lat="48.67431" lon="1.92872">
        <ele>187.11</ele>
        <time>2022-04-26T08:32:31Z</time>
      </trkpt>
      <trkpt lat="48.67442" lon="1.92887">
        <ele>187.11</ele>
        <time>2022-04-26T08:32:21Z</time>
      </trkpt>
      <trkpt lat="48.67443" lon="1.92889">
        <ele>187.11</ele>
        <time>2022-04-26T08:32:20Z</time>
      </trkpt>
      <trkpt lat="48.67444" lon="1.9289">
        <ele>187.11</ele>
        <time>2022-04-26T08:32:19Z</time>
      </trkpt>
      <trkpt lat="48.67445" lon="1.92891">
        <ele>187.11</ele>
        <time>2022-04-26T08:32:18Z</time>
      </trkpt>
      <trkpt lat="48.67446" lon="1.92893">
        <ele>187.11</ele>
        <time>2022-04-26T08:32:17Z</time>
      </trkpt>
      <trkpt lat="48.67446" lon="1.92896">
        <ele>187.11</ele>
        <time>2022-04-26T08:32:16Z</time>
      </trkpt>
      <trkpt lat="48.67466" lon="1.92917">
        <ele>188.08</ele>
        <time>2022-04-26T08:32:00Z</time>
      </trkpt>
      <trkpt lat="48.67486" lon="1.9294">
        <ele>187.11</ele>
        <time>2022-04-26T08:31:45Z</time>
      </trkpt>
      <trkpt lat="48.67503" lon="1.92954">
        <ele>187.11</ele>
        <time>2022-04-26T08:31:32Z</time>
      </trkpt>
      <trkpt lat="48.67523" lon="1.92977">
        <ele>187.11</ele>
        <time>2022-04-26T08:31:17Z</time>
      </trkpt>
      <trkpt lat="48.67554" lon="1.93001">
        <ele>187.11</ele>
        <time>2022-04-26T08:31:01Z</time>
      </trkpt>
      <trkpt lat="48.67577" lon="1.93022">
        <ele>187.11</ele>
        <time>2022-04-26T08:30:41Z</time>
      </trkpt>
      <trkpt lat="48.67597" lon="1.93041">
        <ele>187.11</ele>
        <time>2022-04-26T08:30:28Z</time>
      </trkpt>
      <trkpt lat="48.67602" lon="1.93045">
        <ele>188.08</ele>
        <time>2022-04-26T08:30:23Z</time>
      </trkpt>
      <trkpt lat="48.67626" lon="1.93055">
        <ele>188.08</ele>
        <time>2022-04-26T08:30:05Z</time>
      </trkpt>
      <trkpt lat="48.67645" lon="1.93054">
        <ele>188.08</ele>
        <time>2022-04-26T08:29:51Z</time>
      </trkpt>
      <trkpt lat="48.67661" lon="1.93055">
        <ele>188.08</ele>
        <time>2022-04-26T08:29:38Z</time>
      </trkpt>
      <trkpt lat="48.67683" lon="1.93062">
        <ele>188.08</ele>
        <time>2022-04-26T08:29:25Z</time>
      </trkpt>
      <trkpt lat="48.67685" lon="1.93062">
        <ele>188.08</ele>
        <time>2022-04-26T08:29:24Z</time>
      </trkpt>
      <trkpt lat="48.67687" lon="1.93062">
        <ele>188.08</ele>
        <time>2022-04-26T08:29:23Z</time>
      </trkpt>
      <trkpt lat="48.67691" lon="1.93061">
        <ele>188.08</ele>
        <time>2022-04-26T08:29:19Z</time>
      </trkpt>
      <trkpt lat="48.67713" lon="1.93063">
        <ele>188.08</ele>
        <time>2022-04-26T08:29:06Z</time>
      </trkpt>
      <trkpt lat="48.67733" lon="1.93066">
        <ele>189.04</ele>
        <time>2022-04-26T08:28:51Z</time>
      </trkpt>
      <trkpt lat="48.67751" lon="1.93067">
        <ele>189.04</ele>
        <time>2022-04-26T08:28:39Z</time>
      </trkpt>
      <trkpt lat="48.67771" lon="1.9307">
        <ele>189.04</ele>
        <time>2022-04-26T08:28:23Z</time>
      </trkpt>
      <trkpt lat="48.67773" lon="1.93071">
        <ele>189.04</ele>
        <time>2022-04-26T08:28:21Z</time>
      </trkpt>
      <trkpt lat="48.67794" lon="1.93073">
        <ele>189.04</ele>
        <time>2022-04-26T08:28:09Z</time>
      </trkpt>
      <trkpt lat="48.67819" lon="1.93077">
        <ele>190</ele>
        <time>2022-04-26T08:27:54Z</time>
      </trkpt>
      <trkpt lat="48.67846" lon="1.93074">
        <ele>190</ele>
        <time>2022-04-26T08:27:37Z</time>
      </trkpt>
      <trkpt lat="48.67848" lon="1.93073">
        <ele>190</ele>
        <time>2022-04-26T08:27:35Z</time>
      </trkpt>
      <trkpt lat="48.67869" lon="1.93067">
        <ele>190</ele>
        <time>2022-04-26T08:27:25Z</time>
      </trkpt>
      <trkpt lat="48.67882" lon="1.93061">
        <ele>190</ele>
        <time>2022-04-26T08:27:13Z</time>
      </trkpt>
      <trkpt lat="48.67901" lon="1.93055">
        <ele>190</ele>
        <time>2022-04-26T08:27:01Z</time>
      </trkpt>
      <trkpt lat="48.67903" lon="1.93055">
        <ele>190</ele>
        <time>2022-04-26T08:27:00Z</time>
      </trkpt>
      <trkpt lat="48.67905" lon="1.93055">
        <ele>190</ele>
        <time>2022-04-26T08:26:59Z</time>
      </trkpt>
      <trkpt lat="48.67912" lon="1.93054">
        <ele>190</ele>
        <time>2022-04-26T08:26:55Z</time>
      </trkpt>
      <trkpt lat="48.67933" lon="1.93055">
        <ele>190</ele>
        <time>2022-04-26T08:26:36Z</time>
      </trkpt>
      <trkpt lat="48.67944" lon="1.9305">
        <ele>190</ele>
        <time>2022-04-26T08:26:25Z</time>
      </trkpt>
      <trkpt lat="48.67962" lon="1.93044">
        <ele>190</ele>
        <time>2022-04-26T08:26:12Z</time>
      </trkpt>
      <trkpt lat="48.6798" lon="1.9304">
        <ele>190</ele>
        <time>2022-04-26T08:25:59Z</time>
      </trkpt>
      <trkpt lat="48.67996" lon="1.93041">
        <ele>190</ele>
        <time>2022-04-26T08:25:45Z</time>
      </trkpt>
      <trkpt lat="48.68001" lon="1.93041">
        <ele>190.96</ele>
        <time>2022-04-26T08:25:41Z</time>
      </trkpt>
      <trkpt lat="48.68004" lon="1.9304">
        <ele>190.96</ele>
        <time>2022-04-26T08:25:38Z</time>
      </trkpt>
      <trkpt lat="48.68005" lon="1.93038">
        <ele>190.96</ele>
        <time>2022-04-26T08:25:17Z</time>
      </trkpt>
      <trkpt lat="48.68003" lon="1.93051">
        <ele>190.96</ele>
        <time>2022-04-26T08:24:59Z</time>
      </trkpt>
      <trkpt lat="48.68005" lon="1.93058">
        <ele>190.96</ele>
        <time>2022-04-26T08:24:37Z</time>
      </trkpt>
      <trkpt lat="48.68011" lon="1.93057">
        <ele>190.96</ele>
        <time>2022-04-26T08:24:10Z</time>
      </trkpt>
      <trkpt lat="48.68014" lon="1.93055">
        <ele>191.92</ele>
        <time>2022-04-26T08:23:50Z</time>
      </trkpt>
      <trkpt lat="48.68014" lon="1.93054">
        <ele>190.96</ele>
        <time>2022-04-26T08:23:30Z</time>
      </trkpt>
      <trkpt lat="48.68019" lon="1.9306">
        <ele>191.92</ele>
        <time>2022-04-26T08:22:53Z</time>
      </trkpt>
      <trkpt lat="48.68022" lon="1.93055">
        <ele>191.92</ele>
        <time>2022-04-26T08:22:34Z</time>
      </trkpt>
      <trkpt lat="48.68018" lon="1.93057">
        <ele>191.92</ele>
        <time>2022-04-26T08:21:57Z</time>
      </trkpt>
      <trkpt lat="48.6801" lon="1.93052">
        <ele>191.92</ele>
        <time>2022-04-26T08:21:37Z</time>
      </trkpt>
      <trkpt lat="48.68015" lon="1.93056">
        <ele>191.92</ele>
        <time>2022-04-26T08:20:54Z</time>
      </trkpt>
      <trkpt lat="48.68022" lon="1.93057">
        <ele>192.88</ele>
        <time>2022-04-26T08:20:39Z</time>
      </trkpt>
      <trkpt lat="48.68031" lon="1.93056">
        <ele>192.88</ele>
        <time>2022-04-26T08:20:20Z</time>
      </trkpt>
      <trkpt lat="48.68033" lon="1.93056">
        <ele>192.88</ele>
        <time>2022-04-26T08:20:18Z</time>
      </trkpt>
      <trkpt lat="48.68061" lon="1.93056">
        <ele>193.84</ele>
        <time>2022-04-26T08:19:53Z</time>
      </trkpt>
      <trkpt lat="48.68089" lon="1.93053">
        <ele>193.84</ele>
        <time>2022-04-26T08:19:35Z</time>
      </trkpt>
      <trkpt lat="48.68093" lon="1.93053">
        <ele>193.84</ele>
        <time>2022-04-26T08:19:33Z</time>
      </trkpt>
      <trkpt lat="48.68115" lon="1.93043">
        <ele>192.88</ele>
        <time>2022-04-26T08:19:17Z</time>
      </trkpt>
      <trkpt lat="48.68125" lon="1.93025">
        <ele>192.88</ele>
        <time>2022-04-26T08:19:01Z</time>
      </trkpt>
      <trkpt lat="48.68133" lon="1.93019">
        <ele>192.88</ele>
        <time>2022-04-26T08:18:56Z</time>
      </trkpt>
      <trkpt lat="48.68141" lon="1.93009">
        <ele>191.92</ele>
        <time>2022-04-26T08:18:48Z</time>
      </trkpt>
      <trkpt lat="48.68153" lon="1.92992">
        <ele>191.92</ele>
        <time>2022-04-26T08:18:36Z</time>
      </trkpt>
      <trkpt lat="48.68155" lon="1.92979">
        <ele>192.88</ele>
        <time>2022-04-26T08:18:29Z</time>
      </trkpt>
      <trkpt lat="48.68151" lon="1.92924">
        <ele>192.88</ele>
        <time>2022-04-26T08:18:11Z</time>
      </trkpt>
      <trkpt lat="48.6815" lon="1.92881">
        <ele>191.92</ele>
        <time>2022-04-26T08:17:55Z</time>
      </trkpt>
      <trkpt lat="48.68144" lon="1.92846">
        <ele>191.92</ele>
        <time>2022-04-26T08:17:35Z</time>
      </trkpt>
      <trkpt lat="48.6814" lon="1.92818">
        <ele>191.92</ele>
        <time>2022-04-26T08:17:19Z</time>
      </trkpt>
      <trkpt lat="48.6814" lon="1.92794">
        <ele>191.92</ele>
        <time>2022-04-26T08:17:06Z</time>
      </trkpt>
      <trkpt lat="48.68139" lon="1.92787">
        <ele>191.92</ele>
        <time>2022-04-26T08:17:03Z</time>
      </trkpt>
      <trkpt lat="48.68132" lon="1.92763">
        <ele>192.88</ele>
        <time>2022-04-26T08:16:55Z</time>
      </trkpt>
      <trkpt lat="48.6813" lon="1.92749">
        <ele>192.88</ele>
        <time>2022-04-26T08:16:51Z</time>
      </trkpt>
      <trkpt lat="48.68115" lon="1.92699">
        <ele>192.88</ele>
        <time>2022-04-26T08:16:28Z</time>
      </trkpt>
      <trkpt lat="48.68111" lon="1.92639">
        <ele>193.84</ele>
        <time>2022-04-26T08:16:03Z</time>
      </trkpt>
      <trkpt lat="48.68116" lon="1.92605">
        <ele>193.84</ele>
        <time>2022-04-26T08:15:45Z</time>
      </trkpt>
      <trkpt lat="48.68125" lon="1.92583">
        <ele>192.88</ele>
        <time>2022-04-26T08:15:35Z</time>
      </trkpt>
      <trkpt lat="48.68146" lon="1.92538">
        <ele>192.88</ele>
        <time>2022-04-26T08:15:16Z</time>
      </trkpt>
      <trkpt lat="48.68147" lon="1.92498">
        <ele>191.92</ele>
        <time>2022-04-26T08:14:52Z</time>
      </trkpt>
      <trkpt lat="48.68147" lon="1.92461">
        <ele>190.96</ele>
        <time>2022-04-26T08:14:33Z</time>
      </trkpt>
      <trkpt lat="48.68156" lon="1.92416">
        <ele>190.96</ele>
        <time>2022-04-26T08:14:11Z</time>
      </trkpt>
      <trkpt lat="48.68167" lon="1.92387">
        <ele>190.96</ele>
        <time>2022-04-26T08:13:51Z</time>
      </trkpt>
      <trkpt lat="48.68175" lon="1.92356">
        <ele>190</ele>
        <time>2022-04-26T08:13:34Z</time>
      </trkpt>
      <trkpt lat="48.68187" lon="1.92319">
        <ele>189.04</ele>
        <time>2022-04-26T08:13:19Z</time>
      </trkpt>
      <trkpt lat="48.68202" lon="1.92279">
        <ele>189.04</ele>
        <time>2022-04-26T08:12:58Z</time>
      </trkpt>
      <trkpt lat="48.68211" lon="1.92253">
        <ele>189.04</ele>
        <time>2022-04-26T08:12:45Z</time>
      </trkpt>
      <trkpt lat="48.68217" lon="1.92223">
        <ele>189.04</ele>
        <time>2022-04-26T08:12:29Z</time>
      </trkpt>
      <trkpt lat="48.68222" lon="1.92185">
        <ele>188.08</ele>
        <time>2022-04-26T08:12:10Z</time>
      </trkpt>
      <trkpt lat="48.68223" lon="1.92147">
        <ele>187.11</ele>
        <time>2022-04-26T08:11:53Z</time>
      </trkpt>
      <trkpt lat="48.68226" lon="1.92127">
        <ele>187.11</ele>
        <time>2022-04-26T08:11:46Z</time>
      </trkpt>
      <trkpt lat="48.68225" lon="1.92114">
        <ele>187.11</ele>
        <time>2022-04-26T08:11:42Z</time>
      </trkpt>
      <trkpt lat="48.68226" lon="1.92066">
        <ele>187.11</ele>
        <time>2022-04-26T08:11:23Z</time>
      </trkpt>
      <trkpt lat="48.68227" lon="1.92015">
        <ele>187.11</ele>
        <time>2022-04-26T08:11:00Z</time>
      </trkpt>
      <trkpt lat="48.68232" lon="1.91971">
        <ele>186.15</ele>
        <time>2022-04-26T08:10:35Z</time>
      </trkpt>
      <trkpt lat="48.68239" lon="1.91934">
        <ele>185.19</ele>
        <time>2022-04-26T08:10:21Z</time>
      </trkpt>
      <trkpt lat="48.6824" lon="1.91915">
        <ele>185.19</ele>
        <time>2022-04-26T08:10:14Z</time>
      </trkpt>
      <trkpt lat="48.68223" lon="1.91857">
        <ele>184.23</ele>
        <time>2022-04-26T08:09:54Z</time>
      </trkpt>
      <trkpt lat="48.68217" lon="1.91806">
        <ele>185.19</ele>
        <time>2022-04-26T08:09:30Z</time>
      </trkpt>
      <trkpt lat="48.68213" lon="1.91763">
        <ele>185.19</ele>
        <time>2022-04-26T08:09:07Z</time>
      </trkpt>
      <trkpt lat="48.68219" lon="1.91735">
        <ele>185.19</ele>
        <time>2022-04-26T08:08:48Z</time>
      </trkpt>
      <trkpt lat="48.6824" lon="1.91707">
        <ele>185.19</ele>
        <time>2022-04-26T08:08:28Z</time>
      </trkpt>
      <trkpt lat="48.68252" lon="1.91682">
        <ele>185.19</ele>
        <time>2022-04-26T08:08:03Z</time>
      </trkpt>
      <trkpt lat="48.68249" lon="1.91674">
        <ele>186.15</ele>
        <time>2022-04-26T08:07:31Z</time>
      </trkpt>
      <trkpt lat="48.68247" lon="1.91677">
        <ele>186.15</ele>
        <time>2022-04-26T08:06:44Z</time>
      </trkpt>
      <trkpt lat="48.68245" lon="1.91664">
        <ele>186.15</ele>
        <time>2022-04-26T08:06:06Z</time>
      </trkpt>
      <trkpt lat="48.68245" lon="1.91664">
        <ele>186.15</ele>
        <time>2022-04-26T08:06:01Z</time>
      </trkpt>
      <trkpt lat="48.68248" lon="1.91668">
        <ele>186.15</ele>
        <time>2022-04-26T08:05:51Z</time>
      </trkpt>
      <trkpt lat="48.6825" lon="1.91665">
        <ele>186.15</ele>
        <time>2022-04-26T08:05:46Z</time>
      </trkpt>
      <trkpt lat="48.68252" lon="1.9166">
        <ele>186.15</ele>
        <time>2022-04-26T08:05:40Z</time>
      </trkpt>
      <trkpt lat="48.68256" lon="1.91655">
        <ele>186.15</ele>
        <time>2022-04-26T08:05:32Z</time>
      </trkpt>
      <trkpt lat="48.68272" lon="1.91642">
        <ele>186.15</ele>
        <time>2022-04-26T08:05:24Z</time>
      </trkpt>
      <trkpt lat="48.68269" lon="1.91578">
        <ele>186.15</ele>
        <time>2022-04-26T08:05:02Z</time>
      </trkpt>
      <trkpt lat="48.68257" lon="1.91503">
        <ele>187.11</ele>
        <time>2022-04-26T08:04:39Z</time>
      </trkpt>
      <trkpt lat="48.6825" lon="1.91436">
        <ele>186.15</ele>
        <time>2022-04-26T08:04:19Z</time>
      </trkpt>
      <trkpt lat="48.68242" lon="1.91403">
        <ele>186.15</ele>
        <time>2022-04-26T08:04:07Z</time>
      </trkpt>
      <trkpt lat="48.68226" lon="1.91338">
        <ele>186.15</ele>
        <time>2022-04-26T08:03:44Z</time>
      </trkpt>
      <trkpt lat="48.68225" lon="1.91329">
        <ele>186.15</ele>
        <time>2022-04-26T08:03:37Z</time>
      </trkpt>
      <trkpt lat="48.68211" lon="1.91305">
        <ele>185.19</ele>
        <time>2022-04-26T08:03:20Z</time>
      </trkpt>
      <trkpt lat="48.68215" lon="1.91278">
        <ele>184.23</ele>
        <time>2022-04-26T08:02:58Z</time>
      </trkpt>
      <trkpt lat="48.68222" lon="1.91255">
        <ele>184.23</ele>
        <time>2022-04-26T08:02:44Z</time>
      </trkpt>
      <trkpt lat="48.6821" lon="1.91223">
        <ele>181.83</ele>
        <time>2022-04-26T08:02:24Z</time>
      </trkpt>
      <trkpt lat="48.68207" lon="1.91219">
        <ele>181.83</ele>
        <time>2022-04-26T08:02:22Z</time>
      </trkpt>
      <trkpt lat="48.68199" lon="1.91193">
        <ele>180.87</ele>
        <time>2022-04-26T08:02:11Z</time>
      </trkpt>
      <trkpt lat="48.68184" lon="1.91141">
        <ele>179.9</ele>
        <time>2022-04-26T08:01:47Z</time>
      </trkpt>
      <trkpt lat="48.6817" lon="1.91103">
        <ele>179.9</ele>
        <time>2022-04-26T08:01:27Z</time>
      </trkpt>
      <trkpt lat="48.68148" lon="1.91043">
        <ele>179.9</ele>
        <time>2022-04-26T08:01:03Z</time>
      </trkpt>
      <trkpt lat="48.68144" lon="1.90979">
        <ele>178.94</ele>
        <time>2022-04-26T08:00:35Z</time>
      </trkpt>
      <trkpt lat="48.68135" lon="1.9093">
        <ele>177.02</ele>
        <time>2022-04-26T08:00:12Z</time>
      </trkpt>
      <trkpt lat="48.68117" lon="1.90878">
        <ele>176.06</ele>
        <time>2022-04-26T07:59:49Z</time>
      </trkpt>
      <trkpt lat="48.68111" lon="1.90857">
        <ele>175.1</ele>
        <time>2022-04-26T07:59:34Z</time>
      </trkpt>
      <trkpt lat="48.6811" lon="1.90847">
        <ele>175.1</ele>
        <time>2022-04-26T07:59:26Z</time>
      </trkpt>
      <trkpt lat="48.68115" lon="1.90803">
        <ele>174.14</ele>
        <time>2022-04-26T07:59:03Z</time>
      </trkpt>
      <trkpt lat="48.68121" lon="1.90766">
        <ele>174.14</ele>
        <time>2022-04-26T07:58:42Z</time>
      </trkpt>
      <trkpt lat="48.68134" lon="1.90736">
        <ele>173.17</ele>
        <time>2022-04-26T07:58:23Z</time>
      </trkpt>
      <trkpt lat="48.68144" lon="1.90699">
        <ele>172.21</ele>
        <time>2022-04-26T07:58:03Z</time>
      </trkpt>
      <trkpt lat="48.6816" lon="1.90659">
        <ele>172.21</ele>
        <time>2022-04-26T07:57:39Z</time>
      </trkpt>
      <trkpt lat="48.68163" lon="1.90647">
        <ele>172.21</ele>
        <time>2022-04-26T07:57:34Z</time>
      </trkpt>
      <trkpt lat="48.68165" lon="1.90589">
        <ele>172.21</ele>
        <time>2022-04-26T07:57:10Z</time>
      </trkpt>
      <trkpt lat="48.68167" lon="1.90577">
        <ele>172.21</ele>
        <time>2022-04-26T07:57:04Z</time>
      </trkpt>
      <trkpt lat="48.68164" lon="1.90535">
        <ele>172.21</ele>
        <time>2022-04-26T07:56:48Z</time>
      </trkpt>
      <trkpt lat="48.68161" lon="1.90517">
        <ele>172.21</ele>
        <time>2022-04-26T07:56:41Z</time>
      </trkpt>
      <trkpt lat="48.68153" lon="1.90482">
        <ele>172.21</ele>
        <time>2022-04-26T07:56:22Z</time>
      </trkpt>
      <trkpt lat="48.6815" lon="1.90439">
        <ele>172.21</ele>
        <time>2022-04-26T07:56:02Z</time>
      </trkpt>
      <trkpt lat="48.68146" lon="1.90413">
        <ele>172.21</ele>
        <time>2022-04-26T07:55:47Z</time>
      </trkpt>
      <trkpt lat="48.68144" lon="1.90382">
        <ele>170.77</ele>
        <time>2022-04-26T07:55:32Z</time>
      </trkpt>
      <trkpt lat="48.68137" lon="1.90338">
        <ele>170.77</ele>
        <time>2022-04-26T07:55:11Z</time>
      </trkpt>
      <trkpt lat="48.6813" lon="1.90304">
        <ele>170.77</ele>
        <time>2022-04-26T07:54:56Z</time>
      </trkpt>
      <trkpt lat="48.68129" lon="1.90298">
        <ele>170.77</ele>
        <time>2022-04-26T07:54:54Z</time>
      </trkpt>
      <trkpt lat="48.68127" lon="1.90288">
        <ele>170.77</ele>
        <time>2022-04-26T07:54:49Z</time>
      </trkpt>
      <trkpt lat="48.68119" lon="1.90252">
        <ele>170.77</ele>
        <time>2022-04-26T07:54:31Z</time>
      </trkpt>
      <trkpt lat="48.68118" lon="1.90246">
        <ele>170.77</ele>
        <time>2022-04-26T07:54:29Z</time>
      </trkpt>
      <trkpt lat="48.68115" lon="1.90239">
        <ele>170.77</ele>
        <time>2022-04-26T07:54:25Z</time>
      </trkpt>
      <trkpt lat="48.68104" lon="1.90201">
        <ele>172.21</ele>
        <time>2022-04-26T07:54:03Z</time>
      </trkpt>
      <trkpt lat="48.68092" lon="1.90152">
        <ele>172.21</ele>
        <time>2022-04-26T07:53:41Z</time>
      </trkpt>
      <trkpt lat="48.68085" lon="1.90124">
        <ele>172.21</ele>
        <time>2022-04-26T07:53:27Z</time>
      </trkpt>
      <trkpt lat="48.68081" lon="1.90111">
        <ele>172.21</ele>
        <time>2022-04-26T07:53:23Z</time>
      </trkpt>
      <trkpt lat="48.68074" lon="1.90086">
        <ele>172.21</ele>
        <time>2022-04-26T07:53:11Z</time>
      </trkpt>
      <trkpt lat="48.68064" lon="1.90041">
        <ele>172.21</ele>
        <time>2022-04-26T07:52:45Z</time>
      </trkpt>
      <trkpt lat="48.68059" lon="1.9">
        <ele>172.21</ele>
        <time>2022-04-26T07:52:23Z</time>
      </trkpt>
      <trkpt lat="48.68046" lon="1.89967">
        <ele>172.21</ele>
        <time>2022-04-26T07:51:59Z</time>
      </trkpt>
      <trkpt lat="48.68041" lon="1.8993">
        <ele>172.21</ele>
        <time>2022-04-26T07:51:39Z</time>
      </trkpt>
      <trkpt lat="48.68035" lon="1.89896">
        <ele>172.21</ele>
        <time>2022-04-26T07:51:23Z</time>
      </trkpt>
      <trkpt lat="48.68039" lon="1.89865">
        <ele>172.21</ele>
        <time>2022-04-26T07:51:01Z</time>
      </trkpt>
      <trkpt lat="48.68049" lon="1.89845">
        <ele>172.21</ele>
        <time>2022-04-26T07:50:46Z</time>
      </trkpt>
      <trkpt lat="48.68044" lon="1.8982">
        <ele>170.77</ele>
        <time>2022-04-26T07:50:36Z</time>
      </trkpt>
      <trkpt lat="48.68045" lon="1.8981">
        <ele>170.77</ele>
        <time>2022-04-26T07:50:32Z</time>
      </trkpt>
      <trkpt lat="48.68044" lon="1.89802">
        <ele>172.21</ele>
        <time>2022-04-26T07:50:26Z</time>
      </trkpt>
      <trkpt lat="48.68045" lon="1.89777">
        <ele>172.21</ele>
        <time>2022-04-26T07:50:11Z</time>
      </trkpt>
      <trkpt lat="48.68044" lon="1.89766">
        <ele>172.21</ele>
        <time>2022-04-26T07:49:56Z</time>
      </trkpt>
      <trkpt lat="48.68044" lon="1.8976">
        <ele>172.21</ele>
        <time>2022-04-26T07:49:22Z</time>
      </trkpt>
      <trkpt lat="48.68042" lon="1.89757">
        <ele>172.21</ele>
        <time>2022-04-26T07:48:35Z</time>
      </trkpt>
      <trkpt lat="48.68039" lon="1.89756">
        <ele>172.21</ele>
        <time>2022-04-26T07:48:17Z</time>
      </trkpt>
      <trkpt lat="48.68036" lon="1.89758">
        <ele>172.21</ele>
        <time>2022-04-26T07:47:41Z</time>
      </trkpt>
      <trkpt lat="48.68037" lon="1.89757">
        <ele>173.17</ele>
        <time>2022-04-26T07:47:05Z</time>
      </trkpt>
      <trkpt lat="48.68025" lon="1.89761">
        <ele>173.17</ele>
        <time>2022-04-26T07:46:48Z</time>
      </trkpt>
      <trkpt lat="48.68005" lon="1.89763">
        <ele>173.17</ele>
        <time>2022-04-26T07:46:31Z</time>
      </trkpt>
      <trkpt lat="48.67991" lon="1.89763">
        <ele>174.14</ele>
        <time>2022-04-26T07:46:19Z</time>
      </trkpt>
      <trkpt lat="48.67969" lon="1.89767">
        <ele>174.14</ele>
        <time>2022-04-26T07:46:03Z</time>
      </trkpt>
      <trkpt lat="48.67944" lon="1.8977">
        <ele>174.14</ele>
        <time>2022-04-26T07:45:43Z</time>
      </trkpt>
      <trkpt lat="48.67921" lon="1.89772">
        <ele>174.14</ele>
        <time>2022-04-26T07:45:25Z</time>
      </trkpt>
      <trkpt lat="48.67899" lon="1.89776">
        <ele>174.14</ele>
        <time>2022-04-26T07:45:07Z</time>
      </trkpt>
      <trkpt lat="48.67866" lon="1.8978">
        <ele>174.14</ele>
        <time>2022-04-26T07:44:45Z</time>
      </trkpt>
      <trkpt lat="48.6784" lon="1.89782">
        <ele>174.14</ele>
        <time>2022-04-26T07:44:27Z</time>
      </trkpt>
      <trkpt lat="48.67815" lon="1.89785">
        <ele>174.14</ele>
        <time>2022-04-26T07:44:09Z</time>
      </trkpt>
      <trkpt lat="48.67788" lon="1.89788">
        <ele>175.1</ele>
        <time>2022-04-26T07:43:50Z</time>
      </trkpt>
      <trkpt lat="48.6776" lon="1.89792">
        <ele>175.1</ele>
        <time>2022-04-26T07:43:31Z</time>
      </trkpt>
      <trkpt lat="48.67732" lon="1.89795">
        <ele>175.1</ele>
        <time>2022-04-26T07:43:10Z</time>
      </trkpt>
      <trkpt lat="48.67701" lon="1.89798">
        <ele>175.1</ele>
        <time>2022-04-26T07:42:49Z</time>
      </trkpt>
      <trkpt lat="48.67694" lon="1.89799">
        <ele>174.14</ele>
        <time>2022-04-26T07:42:43Z</time>
      </trkpt>
      <trkpt lat="48.67677" lon="1.89802">
        <ele>174.14</ele>
        <time>2022-04-26T07:42:29Z</time>
      </trkpt>
      <trkpt lat="48.67647" lon="1.89805">
        <ele>174.14</ele>
        <time>2022-04-26T07:42:09Z</time>
      </trkpt>
      <trkpt lat="48.67618" lon="1.89809">
        <ele>174.14</ele>
        <time>2022-04-26T07:41:50Z</time>
      </trkpt>
      <trkpt lat="48.67585" lon="1.89812">
        <ele>174.14</ele>
        <time>2022-04-26T07:41:30Z</time>
      </trkpt>
      <trkpt lat="48.67563" lon="1.89816">
        <ele>175.1</ele>
        <time>2022-04-26T07:41:14Z</time>
      </trkpt>
      <trkpt lat="48.67544" lon="1.89819">
        <ele>175.1</ele>
        <time>2022-04-26T07:40:57Z</time>
      </trkpt>
      <trkpt lat="48.67519" lon="1.89819">
        <ele>175.1</ele>
        <time>2022-04-26T07:40:40Z</time>
      </trkpt>
      <trkpt lat="48.67514" lon="1.8982">
        <ele>175.1</ele>
        <time>2022-04-26T07:40:36Z</time>
      </trkpt>
      <trkpt lat="48.67489" lon="1.89814">
        <ele>175.1</ele>
        <time>2022-04-26T07:40:19Z</time>
      </trkpt>
      <trkpt lat="48.67464" lon="1.8982">
        <ele>174.14</ele>
        <time>2022-04-26T07:40:01Z</time>
      </trkpt>
      <trkpt lat="48.67448" lon="1.89826">
        <ele>174.14</ele>
        <time>2022-04-26T07:39:46Z</time>
      </trkpt>
      <trkpt lat="48.67424" lon="1.89831">
        <ele>173.17</ele>
        <time>2022-04-26T07:39:26Z</time>
      </trkpt>
      <trkpt lat="48.67407" lon="1.89834">
        <ele>173.17</ele>
        <time>2022-04-26T07:39:10Z</time>
      </trkpt>
      <trkpt lat="48.67399" lon="1.89833">
        <ele>173.17</ele>
        <time>2022-04-26T07:38:51Z</time>
      </trkpt>
      <trkpt lat="48.67382" lon="1.89836">
        <ele>173.17</ele>
        <time>2022-04-26T07:38:36Z</time>
      </trkpt>
      <trkpt lat="48.67367" lon="1.89837">
        <ele>173.17</ele>
        <time>2022-04-26T07:38:23Z</time>
      </trkpt>
      <trkpt lat="48.67349" lon="1.8984">
        <ele>173.17</ele>
        <time>2022-04-26T07:38:11Z</time>
      </trkpt>
      <trkpt lat="48.67331" lon="1.89843">
        <ele>172.21</ele>
        <time>2022-04-26T07:37:56Z</time>
      </trkpt>
      <trkpt lat="48.67307" lon="1.89843">
        <ele>172.21</ele>
        <time>2022-04-26T07:37:40Z</time>
      </trkpt>
      <trkpt lat="48.67283" lon="1.89845">
        <ele>172.21</ele>
        <time>2022-04-26T07:37:23Z</time>
      </trkpt>
      <trkpt lat="48.67266" lon="1.89849">
        <ele>172.21</ele>
        <time>2022-04-26T07:37:09Z</time>
      </trkpt>
      <trkpt lat="48.67246" lon="1.8985">
        <ele>172.21</ele>
        <time>2022-04-26T07:36:53Z</time>
      </trkpt>
      <trkpt lat="48.67222" lon="1.89854">
        <ele>173.17</ele>
        <time>2022-04-26T07:36:35Z</time>
      </trkpt>
      <trkpt lat="48.67202" lon="1.89857">
        <ele>173.17</ele>
        <time>2022-04-26T07:36:20Z</time>
      </trkpt>
      <trkpt lat="48.67186" lon="1.8986">
        <ele>172.21</ele>
        <time>2022-04-26T07:36:09Z</time>
      </trkpt>
      <trkpt lat="48.67164" lon="1.89861">
        <ele>172.21</ele>
        <time>2022-04-26T07:35:53Z</time>
      </trkpt>
      <trkpt lat="48.67145" lon="1.89863">
        <ele>173.17</ele>
        <time>2022-04-26T07:35:38Z</time>
      </trkpt>
      <trkpt lat="48.6713" lon="1.89866">
        <ele>173.17</ele>
        <time>2022-04-26T07:35:26Z</time>
      </trkpt>
      <trkpt lat="48.67115" lon="1.89867">
        <ele>173.17</ele>
        <time>2022-04-26T07:35:14Z</time>
      </trkpt>
      <trkpt lat="48.67094" lon="1.89868">
        <ele>173.17</ele>
        <time>2022-04-26T07:34:59Z</time>
      </trkpt>
      <trkpt lat="48.67071" lon="1.89872">
        <ele>173.17</ele>
        <time>2022-04-26T07:34:42Z</time>
      </trkpt>
      <trkpt lat="48.67053" lon="1.89874">
        <ele>173.17</ele>
        <time>2022-04-26T07:34:29Z</time>
      </trkpt>
      <trkpt lat="48.67042" lon="1.89876">
        <ele>173.17</ele>
        <time>2022-04-26T07:34:19Z</time>
      </trkpt>
      <trkpt lat="48.67025" lon="1.89879">
        <ele>173.17</ele>
        <time>2022-04-26T07:34:06Z</time>
      </trkpt>
      <trkpt lat="48.67008" lon="1.8988">
        <ele>173.17</ele>
        <time>2022-04-26T07:33:50Z</time>
      </trkpt>
      <trkpt lat="48.6699" lon="1.89881">
        <ele>173.17</ele>
        <time>2022-04-26T07:33:34Z</time>
      </trkpt>
      <trkpt lat="48.66979" lon="1.89882">
        <ele>173.17</ele>
        <time>2022-04-26T07:33:22Z</time>
      </trkpt>
      <trkpt lat="48.66972" lon="1.89883">
        <ele>173.17</ele>
        <time>2022-04-26T07:33:07Z</time>
      </trkpt>
      <trkpt lat="48.66967" lon="1.89878">
        <ele>173.17</ele>
        <time>2022-04-26T07:32:21Z</time>
      </trkpt>
      <trkpt lat="48.66951" lon="1.89881">
        <ele>173.17</ele>
        <time>2022-04-26T07:32:03Z</time>
      </trkpt>
      <trkpt lat="48.66936" lon="1.89884">
        <ele>173.17</ele>
        <time>2022-04-26T07:31:49Z</time>
      </trkpt>
      <trkpt lat="48.66912" lon="1.89887">
        <ele>173.17</ele>
        <time>2022-04-26T07:31:32Z</time>
      </trkpt>
      <trkpt lat="48.66888" lon="1.8989">
        <ele>173.17</ele>
        <time>2022-04-26T07:31:14Z</time>
      </trkpt>
      <trkpt lat="48.66881" lon="1.8989">
        <ele>173.17</ele>
        <time>2022-04-26T07:31:10Z</time>
      </trkpt>
      <trkpt lat="48.66873" lon="1.89891">
        <ele>173.17</ele>
        <time>2022-04-26T07:31:05Z</time>
      </trkpt>
      <trkpt lat="48.66846" lon="1.89893">
        <ele>173.17</ele>
        <time>2022-04-26T07:30:46Z</time>
      </trkpt>
      <trkpt lat="48.66826" lon="1.89892">
        <ele>173.17</ele>
        <time>2022-04-26T07:30:32Z</time>
      </trkpt>
      <trkpt lat="48.668" lon="1.89896">
        <ele>173.17</ele>
        <time>2022-04-26T07:30:14Z</time>
      </trkpt>
      <trkpt lat="48.66772" lon="1.89898">
        <ele>173.17</ele>
        <time>2022-04-26T07:29:57Z</time>
      </trkpt>
      <trkpt lat="48.66752" lon="1.899">
        <ele>172.21</ele>
        <time>2022-04-26T07:29:42Z</time>
      </trkpt>
      <trkpt lat="48.6673" lon="1.89903">
        <ele>172.21</ele>
        <time>2022-04-26T07:29:29Z</time>
      </trkpt>
      <trkpt lat="48.66699" lon="1.89906">
        <ele>172.21</ele>
        <time>2022-04-26T07:29:08Z</time>
      </trkpt>
      <trkpt lat="48.66677" lon="1.89914">
        <ele>172.21</ele>
        <time>2022-04-26T07:28:51Z</time>
      </trkpt>
      <trkpt lat="48.66651" lon="1.89915">
        <ele>170.77</ele>
        <time>2022-04-26T07:28:37Z</time>
      </trkpt>
      <trkpt lat="48.66617" lon="1.89918">
        <ele>170.77</ele>
        <time>2022-04-26T07:28:18Z</time>
      </trkpt>
      <trkpt lat="48.6659" lon="1.89918">
        <ele>170.77</ele>
        <time>2022-04-26T07:28:01Z</time>
      </trkpt>
      <trkpt lat="48.66585" lon="1.89918">
        <ele>170.77</ele>
        <time>2022-04-26T07:27:59Z</time>
      </trkpt>
      <trkpt lat="48.66562" lon="1.89925">
        <ele>170.77</ele>
        <time>2022-04-26T07:27:43Z</time>
      </trkpt>
      <trkpt lat="48.6654" lon="1.89929">
        <ele>170.77</ele>
        <time>2022-04-26T07:27:27Z</time>
      </trkpt>
      <trkpt lat="48.66518" lon="1.8993">
        <ele>170.77</ele>
        <time>2022-04-26T07:27:11Z</time>
      </trkpt>
      <trkpt lat="48.66506" lon="1.89935">
        <ele>170.77</ele>
        <time>2022-04-26T07:27:04Z</time>
      </trkpt>
      <trkpt lat="48.66493" lon="1.89937">
        <ele>170.77</ele>
        <time>2022-04-26T07:26:56Z</time>
      </trkpt>
      <trkpt lat="48.66481" lon="1.89939">
        <ele>170.77</ele>
        <time>2022-04-26T07:26:43Z</time>
      </trkpt>
      <trkpt lat="48.66469" lon="1.8994">
        <ele>170.77</ele>
        <time>2022-04-26T07:26:34Z</time>
      </trkpt>
      <trkpt lat="48.66444" lon="1.89941">
        <ele>169.81</ele>
        <time>2022-04-26T07:26:19Z</time>
      </trkpt>
      <trkpt lat="48.66423" lon="1.89944">
        <ele>170.77</ele>
        <time>2022-04-26T07:26:05Z</time>
      </trkpt>
      <trkpt lat="48.66401" lon="1.89951">
        <ele>169.81</ele>
        <time>2022-04-26T07:25:50Z</time>
      </trkpt>
      <trkpt lat="48.66372" lon="1.89955">
        <ele>169.81</ele>
        <time>2022-04-26T07:25:32Z</time>
      </trkpt>
      <trkpt lat="48.66351" lon="1.89957">
        <ele>169.81</ele>
        <time>2022-04-26T07:25:19Z</time>
      </trkpt>
      <trkpt lat="48.66325" lon="1.89959">
        <ele>169.81</ele>
        <time>2022-04-26T07:25:02Z</time>
      </trkpt>
      <trkpt lat="48.66302" lon="1.89961">
        <ele>169.81</ele>
        <time>2022-04-26T07:24:47Z</time>
      </trkpt>
      <trkpt lat="48.6628" lon="1.89965">
        <ele>169.81</ele>
        <time>2022-04-26T07:24:31Z</time>
      </trkpt>
      <trkpt lat="48.66273" lon="1.89968">
        <ele>169.81</ele>
        <time>2022-04-26T07:24:26Z</time>
      </trkpt>
      <trkpt lat="48.66266" lon="1.89967">
        <ele>169.81</ele>
        <time>2022-04-26T07:24:21Z</time>
      </trkpt>
      <trkpt lat="48.6625" lon="1.89963">
        <ele>169.81</ele>
        <time>2022-04-26T07:24:06Z</time>
      </trkpt>
      <trkpt lat="48.66248" lon="1.89964">
        <ele>169.81</ele>
        <time>2022-04-26T07:23:59Z</time>
      </trkpt>
      <trkpt lat="48.66247" lon="1.89971">
        <ele>169.81</ele>
        <time>2022-04-26T07:23:41Z</time>
      </trkpt>
      <trkpt lat="48.66244" lon="1.89971">
        <ele>169.81</ele>
        <time>2022-04-26T07:22:56Z</time>
      </trkpt>
      <trkpt lat="48.66243" lon="1.89967">
        <ele>169.81</ele>
        <time>2022-04-26T07:22:33Z</time>
      </trkpt>
      <trkpt lat="48.66238" lon="1.89956">
        <ele>169.81</ele>
        <time>2022-04-26T07:22:15Z</time>
      </trkpt>
      <trkpt lat="48.66226" lon="1.89932">
        <ele>169.81</ele>
        <time>2022-04-26T07:22:00Z</time>
      </trkpt>
      <trkpt lat="48.66222" lon="1.89926">
        <ele>169.81</ele>
        <time>2022-04-26T07:21:54Z</time>
      </trkpt>
      <trkpt lat="48.66217" lon="1.89921">
        <ele>169.81</ele>
        <time>2022-04-26T07:21:49Z</time>
      </trkpt>
      <trkpt lat="48.66206" lon="1.89908">
        <ele>169.81</ele>
        <time>2022-04-26T07:21:39Z</time>
      </trkpt>
      <trkpt lat="48.66189" lon="1.89882">
        <ele>169.81</ele>
        <time>2022-04-26T07:21:19Z</time>
      </trkpt>
      <trkpt lat="48.66169" lon="1.89848">
        <ele>169.81</ele>
        <time>2022-04-26T07:20:54Z</time>
      </trkpt>
      <trkpt lat="48.6615" lon="1.89825">
        <ele>169.81</ele>
        <time>2022-04-26T07:20:33Z</time>
      </trkpt>
      <trkpt lat="48.66136" lon="1.89801">
        <ele>170.77</ele>
        <time>2022-04-26T07:20:12Z</time>
      </trkpt>
      <trkpt lat="48.66114" lon="1.89772">
        <ele>169.81</ele>
        <time>2022-04-26T07:19:50Z</time>
      </trkpt>
      <trkpt lat="48.66097" lon="1.8975">
        <ele>169.81</ele>
        <time>2022-04-26T07:19:29Z</time>
      </trkpt>
      <trkpt lat="48.66089" lon="1.89737">
        <ele>169.81</ele>
        <time>2022-04-26T07:19:22Z</time>
      </trkpt>
      <trkpt lat="48.66077" lon="1.89714">
        <ele>169.81</ele>
        <time>2022-04-26T07:19:09Z</time>
      </trkpt>
      <trkpt lat="48.66058" lon="1.89683">
        <ele>169.81</ele>
        <time>2022-04-26T07:18:49Z</time>
      </trkpt>
      <trkpt lat="48.66034" lon="1.89645">
        <ele>169.81</ele>
        <time>2022-04-26T07:18:31Z</time>
      </trkpt>
      <trkpt lat="48.66015" lon="1.89617">
        <ele>169.81</ele>
        <time>2022-04-26T07:18:11Z</time>
      </trkpt>
      <trkpt lat="48.66007" lon="1.89604">
        <ele>169.81</ele>
        <time>2022-04-26T07:18:01Z</time>
      </trkpt>
      <trkpt lat="48.65979" lon="1.89573">
        <ele>169.81</ele>
        <time>2022-04-26T07:17:37Z</time>
      </trkpt>
      <trkpt lat="48.65965" lon="1.89549">
        <ele>169.81</ele>
        <time>2022-04-26T07:17:16Z</time>
      </trkpt>
      <trkpt lat="48.65954" lon="1.89535">
        <ele>169.81</ele>
        <time>2022-04-26T07:17:03Z</time>
      </trkpt>
      <trkpt lat="48.65941" lon="1.89518">
        <ele>169.81</ele>
        <time>2022-04-26T07:16:50Z</time>
      </trkpt>
      <trkpt lat="48.65939" lon="1.89515">
        <ele>169.81</ele>
        <time>2022-04-26T07:16:48Z</time>
      </trkpt>
      <trkpt lat="48.65918" lon="1.89492">
        <ele>169.81</ele>
        <time>2022-04-26T07:16:33Z</time>
      </trkpt>
      <trkpt lat="48.65897" lon="1.89463">
        <ele>168.85</ele>
        <time>2022-04-26T07:16:14Z</time>
      </trkpt>
      <trkpt lat="48.65875" lon="1.89438">
        <ele>168.85</ele>
        <time>2022-04-26T07:15:55Z</time>
      </trkpt>
      <trkpt lat="48.6587" lon="1.89431">
        <ele>167.89</ele>
        <time>2022-04-26T07:15:50Z</time>
      </trkpt>
      <trkpt lat="48.65854" lon="1.89417">
        <ele>167.89</ele>
        <time>2022-04-26T07:15:37Z</time>
      </trkpt>
      <trkpt lat="48.65849" lon="1.8941">
        <ele>167.89</ele>
        <time>2022-04-26T07:15:33Z</time>
      </trkpt>
      <trkpt lat="48.65833" lon="1.89386">
        <ele>167.89</ele>
        <time>2022-04-26T07:15:19Z</time>
      </trkpt>
      <trkpt lat="48.65807" lon="1.89357">
        <ele>166.93</ele>
        <time>2022-04-26T07:14:59Z</time>
      </trkpt>
      <trkpt lat="48.65801" lon="1.8935">
        <ele>166.93</ele>
        <time>2022-04-26T07:14:54Z</time>
      </trkpt>
      <trkpt lat="48.65782" lon="1.89334">
        <ele>166.93</ele>
        <time>2022-04-26T07:14:39Z</time>
      </trkpt>
      <trkpt lat="48.65774" lon="1.89324">
        <ele>165.96</ele>
        <time>2022-04-26T07:14:28Z</time>
      </trkpt>
      <trkpt lat="48.65759" lon="1.89304">
        <ele>165.96</ele>
        <time>2022-04-26T07:14:13Z</time>
      </trkpt>
      <trkpt lat="48.65735" lon="1.8928">
        <ele>165.96</ele>
        <time>2022-04-26T07:13:57Z</time>
      </trkpt>
      <trkpt lat="48.65719" lon="1.89262">
        <ele>165.96</ele>
        <time>2022-04-26T07:13:40Z</time>
      </trkpt>
      <trkpt lat="48.65703" lon="1.89246">
        <ele>165.96</ele>
        <time>2022-04-26T07:13:26Z</time>
      </trkpt>
      <trkpt lat="48.65694" lon="1.89232">
        <ele>165.96</ele>
        <time>2022-04-26T07:13:16Z</time>
      </trkpt>
      <trkpt lat="48.6567" lon="1.89199">
        <ele>165</ele>
        <time>2022-04-26T07:12:58Z</time>
      </trkpt>
      <trkpt lat="48.65662" lon="1.8919">
        <ele>165</ele>
        <time>2022-04-26T07:12:50Z</time>
      </trkpt>
      <trkpt lat="48.65641" lon="1.89166">
        <ele>165</ele>
        <time>2022-04-26T07:12:31Z</time>
      </trkpt>
      <trkpt lat="48.65626" lon="1.89148">
        <ele>165</ele>
        <time>2022-04-26T07:12:18Z</time>
      </trkpt>
      <trkpt lat="48.65615" lon="1.89138">
        <ele>164.04</ele>
        <time>2022-04-26T07:11:59Z</time>
      </trkpt>
      <trkpt lat="48.65601" lon="1.89126">
        <ele>164.04</ele>
        <time>2022-04-26T07:11:32Z</time>
      </trkpt>
      <trkpt lat="48.656" lon="1.89125">
        <ele>165</ele>
        <time>2022-04-26T07:11:30Z</time>
      </trkpt>
      <trkpt lat="48.65577" lon="1.89098">
        <ele>164.04</ele>
        <time>2022-04-26T07:11:13Z</time>
      </trkpt>
      <trkpt lat="48.65553" lon="1.89064">
        <ele>164.04</ele>
        <time>2022-04-26T07:10:57Z</time>
      </trkpt>
      <trkpt lat="48.6553" lon="1.89041">
        <ele>164.04</ele>
        <time>2022-04-26T07:10:37Z</time>
      </trkpt>
      <trkpt lat="48.65518" lon="1.89032">
        <ele>164.04</ele>
        <time>2022-04-26T07:10:24Z</time>
      </trkpt>
      <trkpt lat="48.65504" lon="1.89017">
        <ele>164.04</ele>
        <time>2022-04-26T07:10:16Z</time>
      </trkpt>
      <trkpt lat="48.65494" lon="1.88997">
        <ele>163.08</ele>
        <time>2022-04-26T07:10:03Z</time>
      </trkpt>
      <trkpt lat="48.65489" lon="1.88989">
        <ele>163.08</ele>
        <time>2022-04-26T07:09:59Z</time>
      </trkpt>
      <trkpt lat="48.6548" lon="1.8898">
        <ele>163.08</ele>
        <time>2022-04-26T07:09:53Z</time>
      </trkpt>
      <trkpt lat="48.65463" lon="1.88962">
        <ele>163.08</ele>
        <time>2022-04-26T07:09:42Z</time>
      </trkpt>
      <trkpt lat="48.65447" lon="1.88941">
        <ele>163.08</ele>
        <time>2022-04-26T07:09:21Z</time>
      </trkpt>
      <trkpt lat="48.65425" lon="1.88921">
        <ele>163.08</ele>
        <time>2022-04-26T07:09:01Z</time>
      </trkpt>
      <trkpt lat="48.65414" lon="1.88907">
        <ele>163.08</ele>
        <time>2022-04-26T07:08:48Z</time>
      </trkpt>
      <trkpt lat="48.65399" lon="1.88896">
        <ele>163.08</ele>
        <time>2022-04-26T07:08:32Z</time>
      </trkpt>
      <trkpt lat="48.65395" lon="1.88891">
        <ele>163.08</ele>
        <time>2022-04-26T07:08:28Z</time>
      </trkpt>
      <trkpt lat="48.65393" lon="1.88886">
        <ele>163.08</ele>
        <time>2022-04-26T07:08:22Z</time>
      </trkpt>
      <trkpt lat="48.65392" lon="1.88882">
        <ele>163.08</ele>
        <time>2022-04-26T07:08:19Z</time>
      </trkpt>
      <trkpt lat="48.65383" lon="1.88841">
        <ele>163.08</ele>
        <time>2022-04-26T07:08:00Z</time>
      </trkpt>
      <trkpt lat="48.65391" lon="1.88828">
        <ele>163.08</ele>
        <time>2022-04-26T07:07:54Z</time>
      </trkpt>
      <trkpt lat="48.65395" lon="1.8882">
        <ele>163.08</ele>
        <time>2022-04-26T07:07:50Z</time>
      </trkpt>
      <trkpt lat="48.65397" lon="1.88801">
        <ele>163.08</ele>
        <time>2022-04-26T07:07:38Z</time>
      </trkpt>
      <trkpt lat="48.65404" lon="1.88773">
        <ele>162.12</ele>
        <time>2022-04-26T07:07:24Z</time>
      </trkpt>
      <trkpt lat="48.65406" lon="1.88751">
        <ele>162.12</ele>
        <time>2022-04-26T07:07:12Z</time>
      </trkpt>
      <trkpt lat="48.65409" lon="1.88738">
        <ele>162.12</ele>
        <time>2022-04-26T07:07:06Z</time>
      </trkpt>
      <trkpt lat="48.6541" lon="1.88732">
        <ele>162.12</ele>
        <time>2022-04-26T07:07:02Z</time>
      </trkpt>
      <trkpt lat="48.65412" lon="1.88713">
        <ele>161.16</ele>
        <time>2022-04-26T07:06:53Z</time>
      </trkpt>
      <trkpt lat="48.65416" lon="1.88684">
        <ele>161.16</ele>
        <time>2022-04-26T07:06:38Z</time>
      </trkpt>
      <trkpt lat="48.65419" lon="1.88657">
        <ele>161.16</ele>
        <time>2022-04-26T07:06:25Z</time>
      </trkpt>
      <trkpt lat="48.65424" lon="1.88638">
        <ele>161.16</ele>
        <time>2022-04-26T07:06:15Z</time>
      </trkpt>
      <trkpt lat="48.65429" lon="1.88599">
        <ele>161.16</ele>
        <time>2022-04-26T07:05:58Z</time>
      </trkpt>
      <trkpt lat="48.65432" lon="1.88578">
        <ele>161.16</ele>
        <time>2022-04-26T07:05:44Z</time>
      </trkpt>
      <trkpt lat="48.65434" lon="1.88566">
        <ele>161.16</ele>
        <time>2022-04-26T07:05:35Z</time>
      </trkpt>
      <trkpt lat="48.65441" lon="1.88547">
        <ele>161.16</ele>
        <time>2022-04-26T07:05:20Z</time>
      </trkpt>
      <trkpt lat="48.65452" lon="1.88533">
        <ele>161.16</ele>
        <time>2022-04-26T07:05:08Z</time>
      </trkpt>
      <trkpt lat="48.65467" lon="1.88526">
        <ele>161.16</ele>
        <time>2022-04-26T07:04:55Z</time>
      </trkpt>
      <trkpt lat="48.65477" lon="1.88515">
        <ele>161.16</ele>
        <time>2022-04-26T07:04:42Z</time>
      </trkpt>
      <trkpt lat="48.65479" lon="1.88512">
        <ele>161.16</ele>
        <time>2022-04-26T07:04:39Z</time>
      </trkpt>
      <trkpt lat="48.65489" lon="1.88503">
        <ele>161.16</ele>
        <time>2022-04-26T07:04:21Z</time>
      </trkpt>
    </trkseg>
  </trk>
</gpx>